AFR442 LFPG-SBGL
Flight info
| Callsign | AFR442 |
|---|---|
| Flight time | 10h 38m |
| Altitude | 31000 |
| Route | LGL6B/26R LGL UT176 TERPO UN872 ERIGA UZ218 FUJTI DCT ATLEN/N0435F230 N872 RALUS UN872 ESP/N0411F190 W8 BAROK/N0486F290 UN873 BENTU/N0490F310 UN873 SAMAR N873 ODEGI/N0488F300 N873 ISOKA/N0491F320 N873 IPERA/N0444F240 B623 CVS/N0474F280 UB623 RAKUD/N0441F240 B623 FNR/N0487F340 UN857 MOLSU |
| Aircraft | B77W/H-SDE1E2E3FGHIJ2J3J4J5M1RWXY/LB1D1 |
Departure
| Time | 2026-05-03 20:15 |
|---|---|
| Airport | Charles de Gaulle International Airport (LFPG) |
Arrival
| Time | 2026-05-04 06:53 |
|---|---|
| Airport | Rio Galeão – Tom Jobim International Airport (SBGL) |
| Time | Latitude | Longitude | Altitude | Speed | Heading |
|---|---|---|---|---|---|
| 2026-05-03 20:15 | 48.98760 | 2.40402 | 3655 ft | 206 kts | 261° |
| 2026-05-03 20:15 | 48.98635 | 2.38188 | 3895 ft | 217 kts | 261° |
| 2026-05-03 20:15 | 48.98502 | 2.35810 | 4128 ft | 231 kts | 261° |
| 2026-05-03 20:15 | 48.98364 | 2.33328 | 4497 ft | 238 kts | 261° |
| 2026-05-03 20:16 | 48.98224 | 2.30800 | 4927 ft | 244 kts | 261° |
| 2026-05-03 20:16 | 48.98076 | 2.28157 | 5246 ft | 255 kts | 261° |
| 2026-05-03 20:16 | 48.97923 | 2.25440 | 5709 ft | 260 kts | 261° |
| 2026-05-03 20:16 | 48.97768 | 2.22679 | 6209 ft | 264 kts | 261° |
| 2026-05-03 20:17 | 48.97609 | 2.19871 | 6717 ft | 268 kts | 261° |
| 2026-05-03 20:17 | 48.97449 | 2.17050 | 7244 ft | 270 kts | 260° |
| 2026-05-03 20:17 | 48.97286 | 2.14189 | 7785 ft | 272 kts | 260° |
| 2026-05-03 20:17 | 48.97119 | 2.11287 | 8346 ft | 273 kts | 260° |
| 2026-05-03 20:18 | 48.96952 | 2.08399 | 8823 ft | 276 kts | 260° |
| 2026-05-03 20:18 | 48.96781 | 2.05443 | 9324 ft | 278 kts | 260° |
| 2026-05-03 20:18 | 48.96611 | 2.02526 | 9817 ft | 281 kts | 260° |
| 2026-05-03 20:18 | 48.96437 | 1.99548 | 10231 ft | 286 kts | 260° |
| 2026-05-03 20:19 | 48.96252 | 1.96465 | 10338 ft | 304 kts | 260° |
| 2026-05-03 20:19 | 48.96053 | 1.93116 | 10348 ft | 325 kts | 261° |
| 2026-05-03 20:19 | 48.95842 | 1.89580 | 10404 ft | 344 kts | 261° |
| 2026-05-03 20:19 | 48.95618 | 1.85819 | 10499 ft | 363 kts | 261° |
| 2026-05-03 20:20 | 48.95391 | 1.82016 | 11099 ft | 365 kts | 261° |
| 2026-05-03 20:20 | 48.95162 | 1.78184 | 11794 ft | 366 kts | 261° |
| 2026-05-03 20:20 | 48.94928 | 1.74313 | 12381 ft | 370 kts | 261° |
| 2026-05-03 20:20 | 48.94685 | 1.70329 | 12963 ft | 375 kts | 261° |
| 2026-05-03 20:21 | 48.94440 | 1.66341 | 13589 ft | 378 kts | 261° |
| 2026-05-03 20:21 | 48.94193 | 1.62347 | 14251 ft | 381 kts | 261° |
| 2026-05-03 20:21 | 48.93938 | 1.58244 | 14914 ft | 384 kts | 261° |
| 2026-05-03 20:21 | 48.93684 | 1.54172 | 15546 ft | 388 kts | 261° |
| 2026-05-03 20:22 | 48.93427 | 1.50081 | 16169 ft | 391 kts | 261° |
| 2026-05-03 20:22 | 48.93167 | 1.45968 | 16774 ft | 395 kts | 261° |
| 2026-05-03 20:22 | 48.92899 | 1.41757 | 17351 ft | 399 kts | 261° |
| 2026-05-03 20:22 | 48.92630 | 1.37539 | 17980 ft | 402 kts | 261° |
| 2026-05-03 20:23 | 48.92357 | 1.33294 | 18605 ft | 404 kts | 260° |
| 2026-05-03 20:23 | 48.92079 | 1.29001 | 19239 ft | 406 kts | 260° |
| 2026-05-03 20:23 | 48.91803 | 1.24753 | 19853 ft | 408 kts | 259° |
| 2026-05-03 20:23 | 48.91519 | 1.20419 | 20425 ft | 411 kts | 259° |
| 2026-05-03 20:24 | 48.91233 | 1.16067 | 20987 ft | 414 kts | 259° |
| 2026-05-03 20:24 | 48.90945 | 1.11739 | 21518 ft | 417 kts | 259° |
| 2026-05-03 20:24 | 48.90648 | 1.07272 | 22068 ft | 420 kts | 259° |
| 2026-05-03 20:24 | 48.90349 | 1.02802 | 22653 ft | 421 kts | 259° |
| 2026-05-03 20:25 | 48.90050 | 0.98365 | 23189 ft | 423 kts | 259° |
| 2026-05-03 20:25 | 48.89746 | 0.93878 | 23688 ft | 426 kts | 259° |
| 2026-05-03 20:25 | 48.89441 | 0.89413 | 24166 ft | 429 kts | 259° |
| 2026-05-03 20:25 | 48.89098 | 0.84859 | 24637 ft | 430 kts | 256° |
| 2026-05-03 20:26 | 48.88397 | 0.80444 | 25067 ft | 428 kts | 247° |
| 2026-05-03 20:26 | 48.87250 | 0.76233 | 25479 ft | 428 kts | 240° |
| 2026-05-03 20:26 | 48.85841 | 0.72156 | 26006 ft | 428 kts | 238° |
| 2026-05-03 20:26 | 48.84444 | 0.68192 | 26528 ft | 429 kts | 238° |
| 2026-05-03 20:27 | 48.83021 | 0.64175 | 26994 ft | 431 kts | 238° |
| 2026-05-03 20:27 | 48.81580 | 0.60118 | 27416 ft | 434 kts | 238° |
| 2026-05-03 20:27 | 48.80136 | 0.56067 | 27846 ft | 436 kts | 237° |
| 2026-05-03 20:27 | 48.78523 | 0.52211 | 28269 ft | 434 kts | 230° |
| 2026-05-03 20:28 | 48.76625 | 0.48671 | 28632 ft | 436 kts | 227° |
| 2026-05-03 20:28 | 48.74648 | 0.45145 | 29117 ft | 436 kts | 227° |
| 2026-05-03 20:28 | 48.72686 | 0.41656 | 29587 ft | 437 kts | 226° |
| 2026-05-03 20:28 | 48.70694 | 0.38119 | 29975 ft | 439 kts | 227° |
| 2026-05-03 20:29 | 48.68724 | 0.34623 | 30357 ft | 441 kts | 226° |
| 2026-05-03 20:29 | 48.66698 | 0.31033 | 30708 ft | 443 kts | 226° |
| 2026-05-03 20:29 | 48.64702 | 0.27500 | 30956 ft | 447 kts | 226° |
| 2026-05-03 20:30 | 48.60640 | 0.20323 | 30965 ft | 445 kts | 226° |
| 2026-05-03 20:30 | 48.56599 | 0.13188 | 30969 ft | 443 kts | 226° |
| 2026-05-03 20:31 | 48.52589 | 0.06053 | 30964 ft | 444 kts | 226° |
| 2026-05-03 20:31 | 48.48588 | -0.01044 | 30965 ft | 445 kts | 226° |
| 2026-05-03 20:32 | 48.44580 | -0.08134 | 30960 ft | 443 kts | 226° |
| 2026-05-03 20:32 | 48.40561 | -0.15223 | 30957 ft | 444 kts | 226° |
| 2026-05-03 20:33 | 48.36540 | -0.22295 | 30950 ft | 443 kts | 225° |
| 2026-05-03 20:33 | 48.32490 | -0.29355 | 30959 ft | 444 kts | 225° |
| 2026-05-03 20:34 | 48.28406 | -0.36392 | 30952 ft | 444 kts | 225° |
| 2026-05-03 20:34 | 48.24324 | -0.43413 | 30949 ft | 444 kts | 225° |
| 2026-05-03 20:35 | 48.20281 | -0.50349 | 30948 ft | 443 kts | 225° |
| 2026-05-03 20:35 | 48.16188 | -0.57353 | 30944 ft | 444 kts | 225° |
| 2026-05-03 20:36 | 48.12117 | -0.64302 | 30949 ft | 443 kts | 225° |
| 2026-05-03 20:36 | 48.08071 | -0.71191 | 30965 ft | 442 kts | 224° |
| 2026-05-03 20:37 | 48.03967 | -0.78160 | 30965 ft | 444 kts | 224° |
| 2026-05-03 20:37 | 47.99875 | -0.85092 | 30965 ft | 441 kts | 224° |
| 2026-05-03 20:38 | 47.95815 | -0.91951 | 30966 ft | 442 kts | 224° |
| 2026-05-03 20:38 | 47.91724 | -0.98844 | 30962 ft | 441 kts | 224° |
| 2026-05-03 20:39 | 47.87643 | -1.05703 | 30978 ft | 441 kts | 224° |
| 2026-05-03 20:39 | 47.83523 | -1.12610 | 30976 ft | 443 kts | 224° |
| 2026-05-03 20:40 | 47.79434 | -1.19447 | 30972 ft | 442 kts | 224° |
| 2026-05-03 20:40 | 47.75338 | -1.26277 | 30958 ft | 444 kts | 224° |
| 2026-05-03 20:41 | 47.71210 | -1.33145 | 30956 ft | 445 kts | 224° |
| 2026-05-03 20:41 | 47.67044 | -1.40054 | 30955 ft | 445 kts | 224° |
| 2026-05-03 20:42 | 47.62900 | -1.46912 | 30951 ft | 447 kts | 224° |
| 2026-05-03 20:42 | 47.58735 | -1.53791 | 30958 ft | 446 kts | 224° |
| 2026-05-03 20:43 | 47.54577 | -1.60649 | 30962 ft | 448 kts | 224° |
| 2026-05-03 20:43 | 47.50411 | -1.67505 | 30958 ft | 446 kts | 223° |
| 2026-05-03 20:44 | 47.46280 | -1.74283 | 30963 ft | 446 kts | 224° |
| 2026-05-03 20:44 | 47.42125 | -1.81085 | 30960 ft | 446 kts | 223° |
| 2026-05-03 20:45 | 47.37960 | -1.87885 | 30952 ft | 447 kts | 223° |
| 2026-05-03 20:45 | 47.33440 | -1.94088 | 30960 ft | 441 kts | 211° |
| 2026-05-03 20:46 | 47.28196 | -1.98882 | 30956 ft | 442 kts | 208° |
| 2026-05-03 20:46 | 47.22977 | -2.03552 | 30961 ft | 440 kts | 209° |
| 2026-05-03 20:47 | 47.17819 | -2.08154 | 30953 ft | 440 kts | 209° |
| 2026-05-03 20:47 | 47.12469 | -2.12915 | 30949 ft | 444 kts | 209° |
| 2026-05-03 20:48 | 47.07194 | -2.17599 | 30944 ft | 442 kts | 209° |
| 2026-05-03 20:48 | 47.01900 | -2.22288 | 30946 ft | 443 kts | 209° |
| 2026-05-03 20:49 | 46.96617 | -2.26957 | 30939 ft | 444 kts | 209° |
| 2026-05-03 20:49 | 46.91283 | -2.31658 | 30941 ft | 446 kts | 209° |
| 2026-05-03 20:50 | 46.85973 | -2.36329 | 30951 ft | 445 kts | 210° |
| 2026-05-03 20:50 | 46.80669 | -2.40988 | 30954 ft | 447 kts | 210° |
| 2026-05-03 20:51 | 46.75325 | -2.45674 | 30946 ft | 446 kts | 210° |
| 2026-05-03 20:51 | 46.69995 | -2.50336 | 30961 ft | 448 kts | 210° |
| 2026-05-03 20:52 | 46.64669 | -2.54982 | 30953 ft | 449 kts | 210° |
| 2026-05-03 20:52 | 46.59264 | -2.59688 | 30950 ft | 448 kts | 210° |
| 2026-05-03 20:53 | 46.53897 | -2.64349 | 30953 ft | 450 kts | 210° |
| 2026-05-03 20:53 | 46.48539 | -2.68992 | 30952 ft | 448 kts | 209° |
| 2026-05-03 20:54 | 46.43200 | -2.73607 | 30958 ft | 450 kts | 209° |
| 2026-05-03 20:54 | 46.35059 | -2.80624 | 30950 ft | 454 kts | 209° |
| 2026-05-03 20:55 | 46.29628 | -2.85292 | 30951 ft | 453 kts | 209° |
| 2026-05-03 20:55 | 46.24431 | -2.90520 | 30952 ft | 457 kts | 218° |
| 2026-05-03 20:56 | 46.19573 | -2.96468 | 30948 ft | 457 kts | 219° |
| 2026-05-03 20:56 | 46.14716 | -3.02405 | 30950 ft | 460 kts | 219° |
| 2026-05-03 20:57 | 46.09810 | -3.08382 | 30948 ft | 459 kts | 218° |
| 2026-05-03 20:57 | 46.04924 | -3.14315 | 30951 ft | 461 kts | 218° |
| 2026-05-03 20:58 | 45.99986 | -3.20295 | 30955 ft | 461 kts | 218° |
| 2026-05-03 20:58 | 45.95083 | -3.26218 | 30966 ft | 460 kts | 218° |
| 2026-05-03 20:59 | 45.90175 | -3.32133 | 30956 ft | 460 kts | 218° |
| 2026-05-03 20:59 | 45.85257 | -3.38046 | 30972 ft | 461 kts | 218° |
| 2026-05-03 21:00 | 45.81970 | -3.41990 | 30970 ft | 459 kts | 218° |
| 2026-05-03 21:00 | 45.75441 | -3.49804 | 30974 ft | 459 kts | 219° |
| 2026-05-03 21:01 | 45.70536 | -3.55658 | 30969 ft | 459 kts | 218° |
| 2026-05-03 21:01 | 45.65641 | -3.61487 | 30957 ft | 459 kts | 219° |
| 2026-05-03 21:02 | 45.60737 | -3.67313 | 30987 ft | 457 kts | 218° |
| 2026-05-03 21:02 | 45.55806 | -3.73157 | 30976 ft | 459 kts | 218° |
| 2026-05-03 21:03 | 45.50891 | -3.78969 | 30976 ft | 458 kts | 218° |
| 2026-05-03 21:03 | 45.45961 | -3.84784 | 30967 ft | 460 kts | 218° |
| 2026-05-03 21:04 | 45.41057 | -3.90555 | 30969 ft | 458 kts | 218° |
| 2026-05-03 21:04 | 45.36124 | -3.96347 | 30974 ft | 460 kts | 218° |
| 2026-05-03 21:05 | 45.31196 | -4.02120 | 30965 ft | 458 kts | 218° |
| 2026-05-03 21:05 | 45.26263 | -4.07885 | 30971 ft | 457 kts | 218° |
| 2026-05-03 21:06 | 45.21339 | -4.13626 | 30963 ft | 458 kts | 219° |
| 2026-05-03 21:06 | 45.16414 | -4.19355 | 30962 ft | 458 kts | 219° |
| 2026-05-03 21:07 | 45.11495 | -4.25063 | 30966 ft | 458 kts | 219° |
| 2026-05-03 21:07 | 45.06568 | -4.30769 | 30967 ft | 457 kts | 219° |
| 2026-05-03 21:08 | 45.01624 | -4.36480 | 30958 ft | 457 kts | 219° |
| 2026-05-03 21:08 | 44.96722 | -4.42129 | 30969 ft | 456 kts | 219° |
| 2026-05-03 21:09 | 44.91798 | -4.47792 | 30961 ft | 456 kts | 219° |
| 2026-05-03 21:09 | 44.86879 | -4.53436 | 30979 ft | 455 kts | 219° |
| 2026-05-03 21:10 | 44.81932 | -4.59099 | 30973 ft | 456 kts | 219° |
| 2026-05-03 21:10 | 44.77005 | -4.64726 | 30977 ft | 456 kts | 219° |
| 2026-05-03 21:11 | 44.72057 | -4.70365 | 30976 ft | 456 kts | 219° |
| 2026-05-03 21:11 | 44.67135 | -4.75961 | 30972 ft | 455 kts | 219° |
| 2026-05-03 21:12 | 44.62170 | -4.81593 | 30982 ft | 455 kts | 219° |
| 2026-05-03 21:12 | 44.57259 | -4.87152 | 30981 ft | 454 kts | 219° |
| 2026-05-03 21:13 | 44.52313 | -4.92737 | 30981 ft | 454 kts | 219° |
| 2026-05-03 21:13 | 44.47381 | -4.98295 | 30989 ft | 454 kts | 219° |
| 2026-05-03 21:14 | 44.42458 | -5.03832 | 30979 ft | 454 kts | 219° |
| 2026-05-03 21:14 | 44.37513 | -5.09382 | 30983 ft | 455 kts | 219° |
| 2026-05-03 21:15 | 44.32541 | -5.14949 | 30984 ft | 453 kts | 219° |
| 2026-05-03 21:15 | 44.27623 | -5.20444 | 30978 ft | 454 kts | 219° |
| 2026-05-03 21:16 | 44.22655 | -5.25981 | 30993 ft | 452 kts | 219° |
| 2026-05-03 21:16 | 44.17744 | -5.31444 | 31001 ft | 454 kts | 219° |
| 2026-05-03 21:17 | 44.13583 | -5.36063 | 30997 ft | 453 kts | 219° |
| 2026-05-03 21:17 | 44.07809 | -5.42457 | 31003 ft | 453 kts | 219° |
| 2026-05-03 21:18 | 44.02883 | -5.47901 | 31001 ft | 453 kts | 219° |
| 2026-05-03 21:18 | 43.97926 | -5.53367 | 31008 ft | 452 kts | 220° |
| 2026-05-03 21:19 | 43.92983 | -5.58824 | 31000 ft | 452 kts | 220° |
| 2026-05-03 21:19 | 43.88089 | -5.64368 | 31007 ft | 451 kts | 220° |
| 2026-05-03 21:20 | 43.83241 | -5.69848 | 31014 ft | 452 kts | 220° |
| 2026-05-03 21:20 | 43.78367 | -5.75341 | 31014 ft | 451 kts | 220° |
| 2026-05-03 21:21 | 43.73473 | -5.80842 | 31012 ft | 452 kts | 220° |
| 2026-05-03 21:21 | 43.68573 | -5.86338 | 31018 ft | 450 kts | 220° |
| 2026-05-03 21:22 | 43.63679 | -5.91813 | 31019 ft | 451 kts | 220° |
| 2026-05-03 21:22 | 43.58804 | -5.97255 | 31013 ft | 451 kts | 220° |
| 2026-05-03 21:23 | 43.53603 | -6.02165 | 31018 ft | 453 kts | 210° |
| 2026-05-03 21:23 | 43.47966 | -6.06128 | 31012 ft | 453 kts | 209° |
| 2026-05-03 21:24 | 43.42311 | -6.10072 | 31012 ft | 453 kts | 209° |
| 2026-05-03 21:24 | 43.36621 | -6.14032 | 31018 ft | 453 kts | 209° |
| 2026-05-03 21:25 | 43.30999 | -6.17939 | 31012 ft | 454 kts | 210° |
| 2026-05-03 21:25 | 43.25340 | -6.21862 | 31015 ft | 453 kts | 210° |
| 2026-05-03 21:26 | 43.19664 | -6.25789 | 31013 ft | 454 kts | 210° |
| 2026-05-03 21:26 | 43.14035 | -6.29676 | 31012 ft | 451 kts | 210° |
| 2026-05-03 21:27 | 43.08405 | -6.33588 | 31021 ft | 453 kts | 210° |
| 2026-05-03 21:27 | 43.02781 | -6.37578 | 31013 ft | 453 kts | 210° |
| 2026-05-03 21:28 | 42.97185 | -6.41535 | 31008 ft | 452 kts | 210° |
| 2026-05-03 21:28 | 42.91584 | -6.45486 | 31017 ft | 450 kts | 210° |
| 2026-05-03 21:29 | 42.85951 | -6.49449 | 31020 ft | 453 kts | 210° |
| 2026-05-03 21:29 | 42.80358 | -6.53375 | 31019 ft | 449 kts | 210° |
| 2026-05-03 21:30 | 42.74758 | -6.57248 | 31020 ft | 449 kts | 210° |
| 2026-05-03 21:30 | 42.69170 | -6.61080 | 31019 ft | 450 kts | 210° |
| 2026-05-03 21:31 | 42.63526 | -6.64944 | 31016 ft | 449 kts | 210° |
| 2026-05-03 21:31 | 42.57960 | -6.68748 | 31034 ft | 450 kts | 210° |
| 2026-05-03 21:32 | 42.52317 | -6.72599 | 31023 ft | 450 kts | 210° |
| 2026-05-03 21:32 | 42.46725 | -6.76407 | 31027 ft | 449 kts | 210° |
| 2026-05-03 21:33 | 42.41074 | -6.80248 | 31017 ft | 451 kts | 210° |
| 2026-05-03 21:33 | 42.35447 | -6.84064 | 31009 ft | 448 kts | 210° |
| 2026-05-03 21:34 | 42.29843 | -6.87857 | 31015 ft | 449 kts | 210° |
| 2026-05-03 21:34 | 42.24253 | -6.91634 | 31007 ft | 447 kts | 210° |
| 2026-05-03 21:35 | 42.18639 | -6.95410 | 31008 ft | 450 kts | 209° |
| 2026-05-03 21:35 | 42.12950 | -6.99119 | 31002 ft | 450 kts | 209° |
| 2026-05-03 21:36 | 42.07293 | -7.02798 | 31005 ft | 450 kts | 209° |
| 2026-05-03 21:36 | 42.01634 | -7.06474 | 31011 ft | 450 kts | 209° |
| 2026-05-03 21:37 | 41.95934 | -7.10171 | 31010 ft | 450 kts | 209° |
| 2026-05-03 21:37 | 41.90282 | -7.13829 | 31014 ft | 448 kts | 209° |
| 2026-05-03 21:38 | 41.84610 | -7.17493 | 31035 ft | 449 kts | 209° |
| 2026-05-03 21:38 | 41.78977 | -7.21123 | 31026 ft | 448 kts | 210° |
| 2026-05-03 21:39 | 41.73339 | -7.24750 | 31028 ft | 444 kts | 209° |
| 2026-05-03 21:39 | 41.67728 | -7.28357 | 31033 ft | 447 kts | 210° |
| 2026-05-03 21:40 | 41.62059 | -7.31992 | 31034 ft | 448 kts | 210° |
| 2026-05-03 21:40 | 41.56432 | -7.35593 | 31030 ft | 445 kts | 210° |
| 2026-05-03 21:41 | 41.50785 | -7.39201 | 31026 ft | 446 kts | 210° |
| 2026-05-03 21:41 | 41.45206 | -7.42758 | 31024 ft | 444 kts | 210° |
| 2026-05-03 21:42 | 41.39592 | -7.46331 | 31023 ft | 444 kts | 210° |
| 2026-05-03 21:42 | 41.33993 | -7.49886 | 31024 ft | 442 kts | 210° |
| 2026-05-03 21:43 | 41.28416 | -7.53420 | 31011 ft | 445 kts | 210° |
| 2026-05-03 21:43 | 41.22795 | -7.56974 | 31023 ft | 441 kts | 210° |
| 2026-05-03 21:44 | 41.17237 | -7.60484 | 31015 ft | 443 kts | 210° |
| 2026-05-03 21:44 | 41.11642 | -7.64007 | 31011 ft | 441 kts | 210° |
| 2026-05-03 21:45 | 41.06063 | -7.67517 | 31024 ft | 442 kts | 210° |
| 2026-05-03 21:45 | 41.00517 | -7.70998 | 31019 ft | 441 kts | 209° |
| 2026-05-03 21:46 | 40.94947 | -7.74488 | 31021 ft | 441 kts | 209° |
| 2026-05-03 21:46 | 40.89363 | -7.77979 | 31023 ft | 441 kts | 209° |
| 2026-05-03 21:47 | 40.83806 | -7.81448 | 31029 ft | 442 kts | 209° |
| 2026-05-03 21:47 | 40.78186 | -7.84950 | 31023 ft | 444 kts | 209° |
| 2026-05-03 21:48 | 40.72588 | -7.88430 | 31029 ft | 441 kts | 209° |
| 2026-05-03 21:48 | 40.66922 | -7.91776 | 31034 ft | 445 kts | 208° |
| 2026-05-03 21:49 | 40.61240 | -7.95066 | 31031 ft | 444 kts | 208° |
| 2026-05-03 21:49 | 40.55513 | -7.98386 | 31036 ft | 447 kts | 208° |
| 2026-05-03 21:50 | 40.49810 | -8.01688 | 31035 ft | 449 kts | 208° |
| 2026-05-03 21:50 | 40.44046 | -8.05021 | 31024 ft | 449 kts | 208° |
| 2026-05-03 21:51 | 40.38290 | -8.08345 | 31030 ft | 450 kts | 208° |
| 2026-05-03 21:51 | 40.32549 | -8.11654 | 31023 ft | 449 kts | 208° |
| 2026-05-03 21:52 | 40.26797 | -8.14965 | 31027 ft | 450 kts | 208° |
| 2026-05-03 21:52 | 40.21060 | -8.18260 | 31017 ft | 449 kts | 208° |
| 2026-05-03 21:53 | 40.15322 | -8.21551 | 31024 ft | 449 kts | 208° |
| 2026-05-03 21:53 | 40.09525 | -8.24869 | 31013 ft | 451 kts | 208° |
| 2026-05-03 21:54 | 40.03764 | -8.28160 | 31012 ft | 450 kts | 208° |
| 2026-05-03 21:54 | 39.97847 | -8.31075 | 31017 ft | 455 kts | 204° |
| 2026-05-03 21:55 | 39.91824 | -8.33800 | 31018 ft | 454 kts | 204° |
| 2026-05-03 21:55 | 39.85813 | -8.36513 | 31028 ft | 455 kts | 204° |
| 2026-05-03 21:56 | 39.79807 | -8.39220 | 31030 ft | 456 kts | 204° |
| 2026-05-03 21:56 | 39.73768 | -8.41936 | 31032 ft | 456 kts | 204° |
| 2026-05-03 21:57 | 39.67732 | -8.44646 | 31030 ft | 456 kts | 204° |
| 2026-05-03 21:57 | 39.61647 | -8.47372 | 31030 ft | 457 kts | 204° |
| 2026-05-03 21:58 | 39.55615 | -8.50070 | 31031 ft | 457 kts | 204° |
| 2026-05-03 21:58 | 39.49580 | -8.52764 | 31025 ft | 459 kts | 204° |
| 2026-05-03 21:59 | 39.43509 | -8.55470 | 31031 ft | 458 kts | 204° |
| 2026-05-03 21:59 | 39.37417 | -8.58180 | 31032 ft | 461 kts | 204° |
| 2026-05-03 22:00 | 39.31347 | -8.60875 | 31035 ft | 461 kts | 204° |
| 2026-05-03 22:00 | 39.25245 | -8.63579 | 31042 ft | 461 kts | 204° |
| 2026-05-03 22:01 | 39.19111 | -8.66292 | 31055 ft | 462 kts | 203° |
| 2026-05-03 22:01 | 39.12978 | -8.69000 | 31059 ft | 463 kts | 204° |
| 2026-05-03 22:02 | 39.06876 | -8.71689 | 31057 ft | 463 kts | 204° |
| 2026-05-03 22:02 | 39.00701 | -8.74406 | 31061 ft | 463 kts | 204° |
| 2026-05-03 22:03 | 38.94603 | -8.77083 | 31059 ft | 464 kts | 204° |
| 2026-05-03 22:03 | 38.88440 | -8.79785 | 31068 ft | 465 kts | 204° |
| 2026-05-03 22:04 | 38.82275 | -8.82482 | 31071 ft | 466 kts | 204° |
| 2026-05-03 22:04 | 38.76098 | -8.85179 | 31069 ft | 466 kts | 204° |
| 2026-05-03 22:05 | 38.69933 | -8.87867 | 31071 ft | 466 kts | 204° |
| 2026-05-03 22:05 | 38.63720 | -8.90570 | 31063 ft | 469 kts | 204° |
| 2026-05-03 22:06 | 38.57478 | -8.93281 | 31057 ft | 470 kts | 204° |
| 2026-05-03 22:06 | 38.51293 | -8.95962 | 31056 ft | 470 kts | 204° |
| 2026-05-03 22:07 | 38.45060 | -8.98659 | 31049 ft | 470 kts | 204° |
| 2026-05-03 22:07 | 38.38834 | -9.01348 | 31049 ft | 470 kts | 204° |
| 2026-05-03 22:08 | 38.32574 | -9.04047 | 31047 ft | 471 kts | 204° |
| 2026-05-03 22:08 | 38.26327 | -9.06735 | 31048 ft | 472 kts | 204° |
| 2026-05-03 22:09 | 38.20055 | -9.09429 | 31053 ft | 471 kts | 204° |
| 2026-05-03 22:10 | 38.10689 | -9.13444 | 31050 ft | 473 kts | 204° |
| 2026-05-03 22:10 | 38.04419 | -9.16125 | 31048 ft | 474 kts | 204° |
| 2026-05-03 22:11 | 37.98100 | -9.18822 | 31054 ft | 475 kts | 204° |
| 2026-05-03 22:11 | 37.91801 | -9.21505 | 31053 ft | 474 kts | 204° |
| 2026-05-03 22:12 | 37.85524 | -9.24175 | 31053 ft | 474 kts | 204° |
| 2026-05-03 22:12 | 37.79240 | -9.26842 | 31056 ft | 473 kts | 204° |
| 2026-05-03 22:13 | 37.72942 | -9.29511 | 31058 ft | 475 kts | 204° |
| 2026-05-03 22:13 | 37.66689 | -9.32156 | 31056 ft | 473 kts | 204° |
| 2026-05-03 22:14 | 37.60373 | -9.34823 | 31061 ft | 475 kts | 204° |
| 2026-05-03 22:14 | 37.54086 | -9.37473 | 31058 ft | 476 kts | 204° |
| 2026-05-03 22:15 | 37.47775 | -9.40128 | 31062 ft | 476 kts | 204° |
| 2026-05-03 22:15 | 37.41466 | -9.42778 | 31064 ft | 476 kts | 204° |
| 2026-05-03 22:16 | 37.35139 | -9.45430 | 31065 ft | 477 kts | 204° |
| 2026-05-03 22:16 | 37.28855 | -9.48059 | 31062 ft | 475 kts | 204° |
| 2026-05-03 22:17 | 37.22511 | -9.50710 | 31066 ft | 477 kts | 203° |
| 2026-05-03 22:17 | 37.16160 | -9.53359 | 31068 ft | 479 kts | 203° |
| 2026-05-03 22:18 | 37.09819 | -9.55998 | 31069 ft | 479 kts | 203° |
| 2026-05-03 22:18 | 37.03453 | -9.58644 | 31070 ft | 479 kts | 203° |
| 2026-05-03 22:19 | 36.97091 | -9.61282 | 31070 ft | 479 kts | 203° |
| 2026-05-03 22:19 | 36.90758 | -9.63905 | 31068 ft | 479 kts | 203° |
| 2026-05-03 22:20 | 36.84384 | -9.66539 | 31078 ft | 479 kts | 202° |
| 2026-05-03 22:20 | 36.78024 | -9.69163 | 31079 ft | 479 kts | 202° |
| 2026-05-03 22:21 | 36.71656 | -9.71786 | 31078 ft | 478 kts | 202° |
| 2026-05-03 22:21 | 36.65333 | -9.74385 | 31080 ft | 479 kts | 202° |
| 2026-05-03 22:22 | 36.58935 | -9.77012 | 31078 ft | 479 kts | 202° |
| 2026-05-03 22:22 | 36.52597 | -9.79609 | 31077 ft | 478 kts | 202° |
| 2026-05-03 22:23 | 36.46236 | -9.82211 | 31077 ft | 480 kts | 202° |
| 2026-05-03 22:23 | 36.39846 | -9.84820 | 31078 ft | 479 kts | 202° |
| 2026-05-03 22:24 | 36.33472 | -9.87418 | 31076 ft | 478 kts | 202° |
| 2026-05-03 22:24 | 36.27135 | -9.89996 | 31078 ft | 479 kts | 202° |
| 2026-05-03 22:25 | 36.20760 | -9.92586 | 31077 ft | 478 kts | 202° |
| 2026-05-03 22:25 | 36.14434 | -9.95152 | 31076 ft | 479 kts | 202° |
| 2026-05-03 22:26 | 36.08056 | -9.97734 | 31076 ft | 480 kts | 202° |
| 2026-05-03 22:26 | 36.01658 | -10.00319 | 31076 ft | 478 kts | 202° |
| 2026-05-03 22:27 | 35.95547 | -10.03486 | 31075 ft | 473 kts | 215° |
| 2026-05-03 22:27 | 35.90225 | -10.08248 | 31078 ft | 468 kts | 220° |
| 2026-05-03 22:28 | 35.85048 | -10.13092 | 31080 ft | 468 kts | 220° |
| 2026-05-03 22:28 | 35.79806 | -10.17972 | 31077 ft | 468 kts | 220° |
| 2026-05-03 22:29 | 35.74610 | -10.22791 | 31084 ft | 467 kts | 220° |
| 2026-05-03 22:29 | 35.69386 | -10.27624 | 31080 ft | 468 kts | 220° |
| 2026-05-03 22:30 | 35.64159 | -10.32449 | 31083 ft | 468 kts | 220° |
| 2026-05-03 22:30 | 35.58924 | -10.37270 | 31076 ft | 468 kts | 220° |
| 2026-05-03 22:31 | 35.53674 | -10.42097 | 31080 ft | 466 kts | 220° |
| 2026-05-03 22:31 | 35.48448 | -10.46894 | 31084 ft | 467 kts | 220° |
| 2026-05-03 22:32 | 35.43256 | -10.51652 | 31084 ft | 467 kts | 220° |
| 2026-05-03 22:32 | 35.38010 | -10.56451 | 31088 ft | 468 kts | 220° |
| 2026-05-03 22:33 | 35.32772 | -10.61235 | 31086 ft | 467 kts | 220° |
| 2026-05-03 22:33 | 35.27507 | -10.66035 | 31087 ft | 467 kts | 220° |
| 2026-05-03 22:34 | 35.22278 | -10.70795 | 31097 ft | 468 kts | 220° |
| 2026-05-03 22:34 | 35.17007 | -10.75584 | 31097 ft | 467 kts | 220° |
| 2026-05-03 22:35 | 35.11792 | -10.80316 | 31094 ft | 467 kts | 220° |
| 2026-05-03 22:35 | 35.06521 | -10.85090 | 31098 ft | 468 kts | 220° |
| 2026-05-03 22:36 | 35.01260 | -10.89847 | 31095 ft | 467 kts | 220° |
| 2026-05-03 22:36 | 34.96000 | -10.94596 | 31098 ft | 468 kts | 220° |
| 2026-05-03 22:37 | 34.90752 | -10.99325 | 31090 ft | 466 kts | 220° |
| 2026-05-03 22:37 | 34.85521 | -11.04032 | 31102 ft | 465 kts | 220° |
| 2026-05-03 22:38 | 34.80298 | -11.08725 | 31096 ft | 465 kts | 221° |
| 2026-05-03 22:38 | 34.75044 | -11.13437 | 31093 ft | 464 kts | 221° |
| 2026-05-03 22:39 | 34.69837 | -11.18100 | 31098 ft | 463 kts | 221° |
| 2026-05-03 22:39 | 34.64635 | -11.22751 | 31088 ft | 461 kts | 221° |
| 2026-05-03 22:40 | 34.59455 | -11.27390 | 31090 ft | 460 kts | 221° |
| 2026-05-03 22:40 | 34.54306 | -11.32013 | 31101 ft | 457 kts | 221° |
| 2026-05-03 22:41 | 34.49140 | -11.36646 | 31099 ft | 462 kts | 221° |
| 2026-05-03 22:41 | 34.43980 | -11.41261 | 31095 ft | 457 kts | 222° |
| 2026-05-03 22:42 | 34.38846 | -11.45847 | 31088 ft | 456 kts | 222° |
| 2026-05-03 22:42 | 34.33727 | -11.50413 | 31098 ft | 456 kts | 222° |
| 2026-05-03 22:43 | 34.28580 | -11.54996 | 31091 ft | 456 kts | 222° |
| 2026-05-03 22:43 | 34.23458 | -11.59549 | 31091 ft | 452 kts | 222° |
| 2026-05-03 22:44 | 34.18381 | -11.64058 | 31094 ft | 455 kts | 222° |
| 2026-05-03 22:44 | 34.13235 | -11.68618 | 31112 ft | 453 kts | 222° |
| 2026-05-03 22:45 | 34.08100 | -11.73163 | 31118 ft | 454 kts | 222° |
| 2026-05-03 22:45 | 34.02993 | -11.77673 | 31111 ft | 449 kts | 223° |
| 2026-05-03 22:46 | 33.97933 | -11.82140 | 31111 ft | 453 kts | 223° |
| 2026-05-03 22:46 | 33.92840 | -11.86625 | 31110 ft | 449 kts | 223° |
| 2026-05-03 22:47 | 33.87764 | -11.91090 | 31106 ft | 450 kts | 223° |
| 2026-05-03 22:47 | 33.82652 | -11.95581 | 31114 ft | 450 kts | 223° |
| 2026-05-03 22:48 | 33.77562 | -12.00046 | 31112 ft | 451 kts | 223° |
| 2026-05-03 22:48 | 33.72457 | -12.04515 | 31115 ft | 451 kts | 223° |
| 2026-05-03 22:49 | 33.67379 | -12.08954 | 31119 ft | 450 kts | 223° |
| 2026-05-03 22:49 | 33.62271 | -12.13414 | 31102 ft | 450 kts | 223° |
| 2026-05-03 22:50 | 33.57211 | -12.17824 | 31117 ft | 449 kts | 223° |
| 2026-05-03 22:50 | 33.52094 | -12.22279 | 31107 ft | 449 kts | 223° |
| 2026-05-03 22:51 | 33.47017 | -12.26692 | 31111 ft | 450 kts | 223° |
| 2026-05-03 22:51 | 33.41922 | -12.31112 | 31106 ft | 449 kts | 223° |
| 2026-05-03 22:52 | 33.36805 | -12.35546 | 31100 ft | 449 kts | 223° |
| 2026-05-03 22:52 | 33.31743 | -12.39926 | 31108 ft | 449 kts | 223° |
| 2026-05-03 22:53 | 33.26633 | -12.44342 | 31103 ft | 450 kts | 223° |
| 2026-05-03 22:53 | 33.21532 | -12.48742 | 31098 ft | 449 kts | 223° |
| 2026-05-03 22:54 | 33.16443 | -12.53127 | 31109 ft | 451 kts | 223° |
| 2026-05-03 22:54 | 33.11308 | -12.57543 | 31094 ft | 449 kts | 223° |
| 2026-05-03 22:55 | 33.06206 | -12.61926 | 31109 ft | 451 kts | 223° |
| 2026-05-03 22:55 | 33.01100 | -12.66304 | 31111 ft | 448 kts | 222° |
| 2026-05-03 22:56 | 32.95996 | -12.70676 | 31121 ft | 451 kts | 222° |
| 2026-05-03 22:56 | 32.90889 | -12.75043 | 31117 ft | 448 kts | 222° |
| 2026-05-03 22:57 | 32.85768 | -12.79417 | 31121 ft | 452 kts | 222° |
| 2026-05-03 22:57 | 32.80626 | -12.83787 | 31119 ft | 450 kts | 222° |
| 2026-05-03 22:58 | 32.75476 | -12.88150 | 31119 ft | 451 kts | 222° |
| 2026-05-03 22:58 | 32.70332 | -12.92502 | 31117 ft | 452 kts | 222° |
| 2026-05-03 22:59 | 32.65178 | -12.96856 | 31117 ft | 451 kts | 222° |
| 2026-05-03 22:59 | 32.60053 | -13.01179 | 31115 ft | 451 kts | 222° |
| 2026-05-03 23:00 | 32.54910 | -13.05513 | 31114 ft | 450 kts | 222° |
| 2026-05-03 23:00 | 32.49769 | -13.09839 | 31113 ft | 452 kts | 222° |
| 2026-05-03 23:01 | 32.44620 | -13.14164 | 31109 ft | 450 kts | 222° |
| 2026-05-03 23:01 | 32.39452 | -13.18500 | 31108 ft | 453 kts | 222° |
| 2026-05-03 23:02 | 32.34274 | -13.22837 | 31110 ft | 452 kts | 222° |
| 2026-05-03 23:02 | 32.29118 | -13.27151 | 31108 ft | 453 kts | 222° |
| 2026-05-03 23:03 | 32.23920 | -13.31492 | 31112 ft | 454 kts | 222° |
| 2026-05-03 23:03 | 32.18773 | -13.35785 | 31106 ft | 452 kts | 221° |
| 2026-05-03 23:04 | 32.13585 | -13.40108 | 31109 ft | 454 kts | 221° |
| 2026-05-03 23:04 | 32.08395 | -13.44424 | 31106 ft | 454 kts | 221° |
| 2026-05-03 23:05 | 32.03189 | -13.48749 | 31107 ft | 455 kts | 221° |
| 2026-05-03 23:05 | 31.97993 | -13.53057 | 31106 ft | 453 kts | 221° |
| 2026-05-03 23:06 | 31.92791 | -13.57367 | 31105 ft | 456 kts | 221° |
| 2026-05-03 23:06 | 31.87569 | -13.61686 | 31107 ft | 456 kts | 221° |
| 2026-05-03 23:07 | 31.82353 | -13.65993 | 31117 ft | 455 kts | 221° |
| 2026-05-03 23:07 | 31.77135 | -13.70297 | 31124 ft | 455 kts | 221° |
| 2026-05-03 23:08 | 31.71922 | -13.74591 | 31125 ft | 457 kts | 221° |
| 2026-05-03 23:08 | 31.66674 | -13.78907 | 31123 ft | 457 kts | 221° |
| 2026-05-03 23:09 | 31.61437 | -13.83208 | 31126 ft | 458 kts | 221° |
| 2026-05-03 23:09 | 31.56192 | -13.87509 | 31127 ft | 458 kts | 221° |
| 2026-05-03 23:10 | 31.50917 | -13.91830 | 31126 ft | 460 kts | 221° |
| 2026-05-03 23:10 | 31.45663 | -13.96126 | 31128 ft | 458 kts | 220° |
| 2026-05-03 23:11 | 31.40381 | -14.00440 | 31126 ft | 457 kts | 221° |
| 2026-05-03 23:11 | 31.35122 | -14.04729 | 31126 ft | 459 kts | 220° |
| 2026-05-03 23:12 | 31.29847 | -14.09027 | 31127 ft | 458 kts | 221° |
| 2026-05-03 23:12 | 31.24588 | -14.13337 | 31132 ft | 460 kts | 221° |
| 2026-05-03 23:13 | 31.19313 | -14.17654 | 31128 ft | 459 kts | 221° |
| 2026-05-03 23:13 | 31.14052 | -14.21954 | 31130 ft | 459 kts | 221° |
| 2026-05-03 23:14 | 31.08758 | -14.26275 | 31131 ft | 460 kts | 220° |
| 2026-05-03 23:14 | 31.03452 | -14.30598 | 31131 ft | 459 kts | 221° |
| 2026-05-03 23:15 | 30.98172 | -14.34895 | 31131 ft | 461 kts | 220° |
| 2026-05-03 23:15 | 30.92901 | -14.39178 | 31129 ft | 461 kts | 220° |
| 2026-05-03 23:16 | 30.87113 | -14.42612 | 31127 ft | 474 kts | 205° |
| 2026-05-03 23:16 | 30.80749 | -14.44983 | 31129 ft | 477 kts | 204° |
| 2026-05-03 23:17 | 30.74357 | -14.47332 | 31128 ft | 477 kts | 204° |
| 2026-05-03 23:17 | 30.68013 | -14.49664 | 31127 ft | 477 kts | 204° |
| 2026-05-03 23:18 | 30.61615 | -14.52014 | 31125 ft | 477 kts | 204° |
| 2026-05-03 23:18 | 30.55260 | -14.54347 | 31125 ft | 477 kts | 204° |
| 2026-05-03 23:19 | 30.48866 | -14.56692 | 31124 ft | 478 kts | 204° |
| 2026-05-03 23:19 | 30.42497 | -14.59024 | 31125 ft | 477 kts | 204° |
| 2026-05-03 23:20 | 30.36081 | -14.61371 | 31124 ft | 479 kts | 204° |
| 2026-05-03 23:20 | 30.29681 | -14.63709 | 31123 ft | 478 kts | 203° |
| 2026-05-03 23:21 | 30.23296 | -14.66038 | 31137 ft | 480 kts | 203° |
| 2026-05-03 23:21 | 30.16877 | -14.68376 | 31134 ft | 479 kts | 202° |
| 2026-05-03 23:22 | 30.07235 | -14.71883 | 31136 ft | 480 kts | 202° |
| 2026-05-03 23:22 | 30.00922 | -14.74176 | 31137 ft | 482 kts | 202° |
| 2026-05-03 23:23 | 29.97752 | -14.75327 | 31264 ft | 488 kts | 202° |
| 2026-05-03 23:23 | 29.94494 | -14.76507 | 31847 ft | 485 kts | 202° |
| 2026-05-03 23:23 | 29.91272 | -14.77671 | 32695 ft | 476 kts | 202° |
| 2026-05-03 23:23 | 29.88128 | -14.78808 | 33092 ft | 477 kts | 203° |
| 2026-05-03 23:24 | 29.81758 | -14.81112 | 33133 ft | 472 kts | 203° |
| 2026-05-03 23:24 | 29.75429 | -14.83398 | 33131 ft | 473 kts | 203° |
| 2026-05-03 23:25 | 29.69092 | -14.85684 | 33128 ft | 471 kts | 202° |
| 2026-05-03 23:25 | 29.62808 | -14.87947 | 33126 ft | 471 kts | 202° |
| 2026-05-03 23:26 | 29.56465 | -14.90230 | 33126 ft | 472 kts | 202° |
| 2026-05-03 23:26 | 29.50161 | -14.92494 | 33127 ft | 473 kts | 202° |
| 2026-05-03 23:27 | 29.43830 | -14.94765 | 33125 ft | 471 kts | 203° |
| 2026-05-03 23:27 | 29.37513 | -14.97029 | 33121 ft | 472 kts | 202° |
| 2026-05-03 23:28 | 29.31216 | -14.99282 | 33117 ft | 471 kts | 202° |
| 2026-05-03 23:28 | 29.24902 | -15.01538 | 33118 ft | 473 kts | 202° |
| 2026-05-03 23:29 | 29.18571 | -15.03797 | 33117 ft | 471 kts | 202° |
| 2026-05-03 23:29 | 29.12252 | -15.06050 | 33119 ft | 473 kts | 202° |
| 2026-05-03 23:30 | 29.05975 | -15.08284 | 33117 ft | 471 kts | 202° |
| 2026-05-03 23:30 | 28.99652 | -15.10532 | 33115 ft | 471 kts | 202° |
| 2026-05-03 23:31 | 28.93331 | -15.12777 | 33114 ft | 472 kts | 202° |
| 2026-05-03 23:31 | 28.87043 | -15.15006 | 33113 ft | 471 kts | 202° |
| 2026-05-03 23:32 | 28.80745 | -15.17237 | 33114 ft | 471 kts | 202° |
| 2026-05-03 23:32 | 28.74480 | -15.19453 | 33112 ft | 470 kts | 202° |
| 2026-05-03 23:33 | 28.68196 | -15.21673 | 33112 ft | 471 kts | 202° |
| 2026-05-03 23:33 | 28.61886 | -15.23899 | 33107 ft | 471 kts | 202° |
| 2026-05-03 23:34 | 28.55603 | -15.26113 | 33105 ft | 470 kts | 202° |
| 2026-05-03 23:34 | 28.49277 | -15.28340 | 33105 ft | 470 kts | 202° |
| 2026-05-03 23:35 | 28.43007 | -15.30543 | 33102 ft | 471 kts | 202° |
| 2026-05-03 23:35 | 28.36709 | -15.32754 | 33101 ft | 470 kts | 202° |
| 2026-05-03 23:36 | 28.30379 | -15.34974 | 33099 ft | 471 kts | 202° |
| 2026-05-03 23:36 | 28.24117 | -15.37167 | 33098 ft | 470 kts | 202° |
| 2026-05-03 23:37 | 28.17836 | -15.39363 | 33099 ft | 469 kts | 202° |
| 2026-05-03 23:37 | 28.11518 | -15.41571 | 33103 ft | 470 kts | 202° |
| 2026-05-03 23:38 | 28.05551 | -15.44486 | 33106 ft | 461 kts | 216° |
| 2026-05-03 23:38 | 28.00141 | -15.48452 | 33117 ft | 460 kts | 217° |
| 2026-05-03 23:39 | 27.94754 | -15.52430 | 33116 ft | 460 kts | 217° |
| 2026-05-03 23:39 | 27.89375 | -15.56390 | 33105 ft | 459 kts | 217° |
| 2026-05-03 23:40 | 27.83953 | -15.60375 | 33103 ft | 461 kts | 217° |
| 2026-05-03 23:40 | 27.78555 | -15.64335 | 33099 ft | 460 kts | 217° |
| 2026-05-03 23:41 | 27.73148 | -15.68297 | 33102 ft | 461 kts | 217° |
| 2026-05-03 23:41 | 27.67715 | -15.72273 | 33099 ft | 462 kts | 217° |
| 2026-05-03 23:42 | 27.62329 | -15.76209 | 33099 ft | 461 kts | 217° |
| 2026-05-03 23:42 | 27.56867 | -15.80196 | 33098 ft | 462 kts | 217° |
| 2026-05-03 23:43 | 27.51447 | -15.84148 | 33097 ft | 463 kts | 217° |
| 2026-05-03 23:43 | 27.45999 | -15.88115 | 33097 ft | 462 kts | 217° |
| 2026-05-03 23:44 | 27.40587 | -15.92051 | 33096 ft | 462 kts | 217° |
| 2026-05-03 23:44 | 27.35146 | -15.96004 | 33095 ft | 462 kts | 217° |
| 2026-05-03 23:45 | 27.29702 | -15.99954 | 33092 ft | 461 kts | 217° |
| 2026-05-03 23:45 | 27.24260 | -16.03898 | 33096 ft | 463 kts | 217° |
| 2026-05-03 23:46 | 27.18811 | -16.07843 | 33260 ft | 463 kts | 217° |
| 2026-05-03 23:46 | 27.16062 | -16.09831 | 33388 ft | 462 kts | 217° |
| 2026-05-03 23:46 | 27.13369 | -16.11777 | 33519 ft | 462 kts | 217° |
| 2026-05-03 23:47 | 27.10640 | -16.13749 | 33654 ft | 461 kts | 217° |
| 2026-05-03 23:47 | 27.07941 | -16.15696 | 33786 ft | 460 kts | 217° |
| 2026-05-03 23:47 | 27.05215 | -16.17664 | 33924 ft | 461 kts | 217° |
| 2026-05-03 23:47 | 27.02527 | -16.19603 | 34055 ft | 460 kts | 217° |
| 2026-05-03 23:48 | 26.97081 | -16.23526 | 34090 ft | 459 kts | 217° |
| 2026-05-03 23:48 | 26.91665 | -16.27424 | 34087 ft | 457 kts | 217° |
| 2026-05-03 23:49 | 26.86275 | -16.31296 | 34084 ft | 458 kts | 217° |
| 2026-05-03 23:49 | 26.80858 | -16.35176 | 34089 ft | 457 kts | 217° |
| 2026-05-03 23:50 | 26.79744 | -16.35974 | 34150 ft | 458 kts | 217° |
| 2026-05-03 23:50 | 26.73458 | -16.40472 | 34090 ft | 458 kts | 217° |
| 2026-05-03 23:51 | 26.68034 | -16.44348 | 34091 ft | 458 kts | 217° |
| 2026-05-03 23:51 | 26.62594 | -16.48232 | 34106 ft | 467 kts | 217° |
| 2026-05-03 23:52 | 26.57060 | -16.52178 | 34098 ft | 470 kts | 217° |
| 2026-05-03 23:52 | 26.51564 | -16.56089 | 34078 ft | 460 kts | 217° |
| 2026-05-03 23:53 | 26.46157 | -16.59933 | 34075 ft | 454 kts | 217° |
| 2026-05-03 23:53 | 26.40787 | -16.63751 | 34070 ft | 457 kts | 217° |
| 2026-05-03 23:54 | 26.35393 | -16.67580 | 34086 ft | 457 kts | 217° |
| 2026-05-03 23:54 | 26.30016 | -16.71391 | 34082 ft | 455 kts | 217° |
| 2026-05-03 23:55 | 26.24631 | -16.75205 | 34081 ft | 455 kts | 217° |
| 2026-05-03 23:55 | 26.19246 | -16.79014 | 34078 ft | 456 kts | 217° |
| 2026-05-03 23:56 | 26.13879 | -16.82818 | 34079 ft | 456 kts | 217° |
| 2026-05-03 23:56 | 26.08490 | -16.86633 | 34074 ft | 454 kts | 217° |
| 2026-05-03 23:57 | 26.03110 | -16.90438 | 34075 ft | 455 kts | 217° |
| 2026-05-03 23:57 | 25.97756 | -16.94219 | 34074 ft | 454 kts | 217° |
| 2026-05-03 23:58 | 25.92385 | -16.98010 | 34073 ft | 456 kts | 217° |
| 2026-05-03 23:58 | 25.86978 | -17.01821 | 34069 ft | 456 kts | 218° |
| 2026-05-03 23:59 | 25.81593 | -17.05611 | 34073 ft | 455 kts | 218° |
| 2026-05-03 23:59 | 25.76213 | -17.09395 | 34068 ft | 455 kts | 218° |
| 2026-05-04 00:00 | 25.70856 | -17.13158 | 34070 ft | 454 kts | 218° |
| 2026-05-04 00:00 | 25.65517 | -17.16903 | 34068 ft | 452 kts | 218° |
| 2026-05-04 00:01 | 25.60166 | -17.20655 | 34068 ft | 453 kts | 218° |
| 2026-05-04 00:01 | 25.54800 | -17.24412 | 34066 ft | 453 kts | 218° |
| 2026-05-04 00:02 | 25.49454 | -17.28151 | 34068 ft | 454 kts | 218° |
| 2026-05-04 00:02 | 25.44071 | -17.31913 | 34064 ft | 452 kts | 218° |
| 2026-05-04 00:03 | 25.38753 | -17.35625 | 34064 ft | 452 kts | 218° |
| 2026-05-04 00:03 | 25.33407 | -17.39352 | 34062 ft | 452 kts | 218° |
| 2026-05-04 00:04 | 25.28046 | -17.43086 | 34062 ft | 452 kts | 218° |
| 2026-05-04 00:04 | 25.22726 | -17.46787 | 34059 ft | 451 kts | 218° |
| 2026-05-04 00:05 | 25.17352 | -17.50522 | 34058 ft | 451 kts | 218° |
| 2026-05-04 00:05 | 25.12040 | -17.54210 | 34060 ft | 450 kts | 218° |
| 2026-05-04 00:06 | 25.06685 | -17.57925 | 34055 ft | 451 kts | 218° |
| 2026-05-04 00:06 | 25.01357 | -17.61615 | 34054 ft | 450 kts | 218° |
| 2026-05-04 00:07 | 24.96044 | -17.65290 | 34057 ft | 450 kts | 218° |
| 2026-05-04 00:07 | 24.90706 | -17.68976 | 34069 ft | 449 kts | 218° |
| 2026-05-04 00:08 | 24.85349 | -17.72671 | 34070 ft | 449 kts | 218° |
| 2026-05-04 00:08 | 24.80015 | -17.76349 | 34065 ft | 451 kts | 217° |
| 2026-05-04 00:09 | 24.74651 | -17.80041 | 34066 ft | 452 kts | 217° |
| 2026-05-04 00:09 | 24.69299 | -17.83721 | 34062 ft | 451 kts | 218° |
| 2026-05-04 00:10 | 24.63946 | -17.87399 | 34061 ft | 450 kts | 217° |
| 2026-05-04 00:10 | 24.58588 | -17.91077 | 34060 ft | 451 kts | 217° |
| 2026-05-04 00:11 | 24.53255 | -17.94733 | 34059 ft | 450 kts | 217° |
| 2026-05-04 00:11 | 24.47889 | -17.98409 | 34054 ft | 452 kts | 217° |
| 2026-05-04 00:12 | 24.42532 | -18.02073 | 34050 ft | 451 kts | 217° |
| 2026-05-04 00:12 | 24.37166 | -18.05742 | 34050 ft | 453 kts | 217° |
| 2026-05-04 00:13 | 24.31832 | -18.09384 | 34044 ft | 451 kts | 217° |
| 2026-05-04 00:13 | 24.26462 | -18.13047 | 34047 ft | 450 kts | 217° |
| 2026-05-04 00:14 | 24.21075 | -18.16718 | 34042 ft | 450 kts | 217° |
| 2026-05-04 00:14 | 24.15727 | -18.20359 | 34044 ft | 452 kts | 217° |
| 2026-05-04 00:15 | 24.10357 | -18.24011 | 34044 ft | 452 kts | 217° |
| 2026-05-04 00:15 | 24.04962 | -18.27677 | 34038 ft | 454 kts | 217° |
| 2026-05-04 00:16 | 23.99570 | -18.31336 | 34040 ft | 452 kts | 217° |
| 2026-05-04 00:16 | 23.94194 | -18.34981 | 34042 ft | 452 kts | 217° |
| 2026-05-04 00:17 | 23.88789 | -18.38643 | 34040 ft | 453 kts | 217° |
| 2026-05-04 00:17 | 23.83403 | -18.42287 | 34042 ft | 452 kts | 217° |
| 2026-05-04 00:18 | 23.78048 | -18.45908 | 34036 ft | 452 kts | 217° |
| 2026-05-04 00:18 | 23.72631 | -18.49567 | 34037 ft | 453 kts | 217° |
| 2026-05-04 00:19 | 23.67241 | -18.53203 | 34037 ft | 453 kts | 217° |
| 2026-05-04 00:19 | 23.61836 | -18.56847 | 34039 ft | 453 kts | 217° |
| 2026-05-04 00:20 | 23.56473 | -18.60457 | 34036 ft | 452 kts | 217° |
| 2026-05-04 00:20 | 23.51075 | -18.64089 | 34030 ft | 450 kts | 217° |
| 2026-05-04 00:21 | 23.45718 | -18.67690 | 34046 ft | 452 kts | 216° |
| 2026-05-04 00:21 | 23.40321 | -18.71313 | 34046 ft | 451 kts | 216° |
| 2026-05-04 00:22 | 23.34928 | -18.74931 | 34043 ft | 453 kts | 216° |
| 2026-05-04 00:22 | 23.29542 | -18.78540 | 34040 ft | 451 kts | 216° |
| 2026-05-04 00:23 | 23.24177 | -18.82133 | 34045 ft | 452 kts | 216° |
| 2026-05-04 00:23 | 23.18792 | -18.85734 | 34039 ft | 452 kts | 216° |
| 2026-05-04 00:24 | 23.13379 | -18.89351 | 34038 ft | 452 kts | 216° |
| 2026-05-04 00:24 | 23.08010 | -18.92934 | 34035 ft | 450 kts | 216° |
| 2026-05-04 00:25 | 23.02657 | -18.96505 | 34032 ft | 450 kts | 216° |
| 2026-05-04 00:25 | 22.97284 | -19.00085 | 34033 ft | 450 kts | 216° |
| 2026-05-04 00:26 | 22.91912 | -19.03662 | 34032 ft | 452 kts | 216° |
| 2026-05-04 00:26 | 22.86477 | -19.07277 | 34032 ft | 453 kts | 216° |
| 2026-05-04 00:27 | 22.81083 | -19.10860 | 34032 ft | 452 kts | 216° |
| 2026-05-04 00:27 | 22.75676 | -19.14449 | 34030 ft | 451 kts | 216° |
| 2026-05-04 00:28 | 22.70315 | -19.18004 | 34025 ft | 451 kts | 216° |
| 2026-05-04 00:28 | 22.64929 | -19.21573 | 34027 ft | 452 kts | 216° |
| 2026-05-04 00:29 | 22.59496 | -19.25169 | 34022 ft | 453 kts | 216° |
| 2026-05-04 00:29 | 22.54088 | -19.28746 | 34021 ft | 452 kts | 216° |
| 2026-05-04 00:30 | 22.48705 | -19.32302 | 34023 ft | 451 kts | 216° |
| 2026-05-04 00:30 | 22.43298 | -19.35871 | 34015 ft | 452 kts | 216° |
| 2026-05-04 00:31 | 22.37880 | -19.39444 | 34019 ft | 452 kts | 216° |
| 2026-05-04 00:31 | 22.32476 | -19.43005 | 34021 ft | 453 kts | 216° |
| 2026-05-04 00:32 | 22.27068 | -19.46565 | 34015 ft | 452 kts | 216° |
| 2026-05-04 00:32 | 22.21605 | -19.50158 | 34011 ft | 455 kts | 216° |
| 2026-05-04 00:33 | 22.13466 | -19.55504 | 34016 ft | 453 kts | 216° |
| 2026-05-04 00:34 | 22.08017 | -19.59080 | 34019 ft | 456 kts | 216° |
| 2026-05-04 00:34 | 22.02572 | -19.62649 | 34011 ft | 454 kts | 216° |
| 2026-05-04 00:35 | 21.97143 | -19.66204 | 34026 ft | 452 kts | 216° |
| 2026-05-04 00:35 | 21.91695 | -19.69769 | 34021 ft | 456 kts | 216° |
| 2026-05-04 00:36 | 21.86255 | -19.73324 | 34017 ft | 453 kts | 215° |
| 2026-05-04 00:36 | 21.80829 | -19.76869 | 34012 ft | 456 kts | 216° |
| 2026-05-04 00:37 | 21.75366 | -19.80433 | 34011 ft | 455 kts | 216° |
| 2026-05-04 00:37 | 21.69898 | -19.83999 | 34014 ft | 458 kts | 216° |
| 2026-05-04 00:38 | 21.64416 | -19.87568 | 34014 ft | 456 kts | 215° |
| 2026-05-04 00:38 | 21.58942 | -19.91131 | 34014 ft | 458 kts | 216° |
| 2026-05-04 00:39 | 21.53478 | -19.94683 | 34012 ft | 457 kts | 216° |
| 2026-05-04 00:39 | 21.47986 | -19.98251 | 34015 ft | 460 kts | 215° |
| 2026-05-04 00:40 | 21.42480 | -20.01825 | 34015 ft | 460 kts | 215° |
| 2026-05-04 00:40 | 21.36996 | -20.05380 | 34015 ft | 459 kts | 216° |
| 2026-05-04 00:41 | 21.31488 | -20.08949 | 34012 ft | 460 kts | 216° |
| 2026-05-04 00:41 | 21.25973 | -20.12518 | 34013 ft | 459 kts | 216° |
| 2026-05-04 00:42 | 21.20474 | -20.16075 | 34010 ft | 461 kts | 216° |
| 2026-05-04 00:42 | 21.14967 | -20.19633 | 34012 ft | 461 kts | 216° |
| 2026-05-04 00:43 | 21.09434 | -20.23205 | 34010 ft | 460 kts | 216° |
| 2026-05-04 00:43 | 21.03894 | -20.26778 | 34009 ft | 461 kts | 216° |
| 2026-05-04 00:44 | 20.98389 | -20.30326 | 34007 ft | 461 kts | 216° |
| 2026-05-04 00:44 | 20.92852 | -20.33891 | 34002 ft | 461 kts | 216° |
| 2026-05-04 00:45 | 20.87323 | -20.37447 | 34005 ft | 459 kts | 215° |
| 2026-05-04 00:45 | 20.81810 | -20.40992 | 34003 ft | 461 kts | 216° |
| 2026-05-04 00:46 | 20.76292 | -20.44535 | 34004 ft | 461 kts | 216° |
| 2026-05-04 00:46 | 20.70725 | -20.48107 | 33999 ft | 461 kts | 216° |
| 2026-05-04 00:47 | 20.65183 | -20.51660 | 33995 ft | 464 kts | 216° |
| 2026-05-04 00:47 | 20.59635 | -20.55214 | 33997 ft | 462 kts | 216° |
| 2026-05-04 00:48 | 20.54074 | -20.58773 | 33990 ft | 463 kts | 216° |
| 2026-05-04 00:48 | 20.48496 | -20.62340 | 33992 ft | 462 kts | 215° |
| 2026-05-04 00:49 | 20.42962 | -20.65875 | 33998 ft | 463 kts | 215° |
| 2026-05-04 00:49 | 20.37377 | -20.69441 | 33998 ft | 464 kts | 215° |
| 2026-05-04 00:50 | 20.31796 | -20.72995 | 33996 ft | 464 kts | 215° |
| 2026-05-04 00:50 | 20.26238 | -20.76527 | 33998 ft | 464 kts | 215° |
| 2026-05-04 00:51 | 20.20631 | -20.80090 | 33997 ft | 464 kts | 215° |
| 2026-05-04 00:51 | 20.15051 | -20.83631 | 33992 ft | 463 kts | 215° |
| 2026-05-04 00:52 | 20.09476 | -20.87166 | 33990 ft | 463 kts | 215° |
| 2026-05-04 00:52 | 20.03891 | -20.90706 | 33988 ft | 465 kts | 215° |
| 2026-05-04 00:53 | 19.98284 | -20.94256 | 33990 ft | 464 kts | 215° |
| 2026-05-04 00:53 | 19.92689 | -20.97795 | 33990 ft | 466 kts | 215° |
| 2026-05-04 00:54 | 19.87087 | -21.01336 | 33991 ft | 467 kts | 215° |
| 2026-05-04 00:54 | 19.81447 | -21.04898 | 33991 ft | 465 kts | 215° |
| 2026-05-04 00:55 | 19.75816 | -21.08452 | 33989 ft | 467 kts | 215° |
| 2026-05-04 00:55 | 19.70207 | -21.11988 | 33989 ft | 466 kts | 215° |
| 2026-05-04 00:56 | 19.64589 | -21.15527 | 33988 ft | 466 kts | 215° |
| 2026-05-04 00:56 | 19.58983 | -21.19056 | 33985 ft | 466 kts | 215° |
| 2026-05-04 00:57 | 19.53355 | -21.22596 | 33986 ft | 467 kts | 215° |
| 2026-05-04 00:57 | 19.47718 | -21.26138 | 33985 ft | 467 kts | 215° |
| 2026-05-04 00:58 | 19.42070 | -21.29685 | 33982 ft | 467 kts | 215° |
| 2026-05-04 00:58 | 19.36452 | -21.33210 | 33985 ft | 467 kts | 215° |
| 2026-05-04 00:59 | 19.30798 | -21.36754 | 33983 ft | 467 kts | 215° |
| 2026-05-04 00:59 | 19.25172 | -21.40278 | 33983 ft | 467 kts | 215° |
| 2026-05-04 01:00 | 19.19515 | -21.43819 | 33975 ft | 468 kts | 215° |
| 2026-05-04 01:00 | 19.13892 | -21.47336 | 33985 ft | 467 kts | 215° |
| 2026-05-04 01:01 | 19.08238 | -21.50868 | 33986 ft | 468 kts | 215° |
| 2026-05-04 01:01 | 19.02584 | -21.54399 | 33993 ft | 469 kts | 215° |
| 2026-05-04 01:02 | 18.96929 | -21.57927 | 33998 ft | 469 kts | 215° |
| 2026-05-04 01:02 | 18.91274 | -21.61452 | 33994 ft | 468 kts | 215° |
| 2026-05-04 01:03 | 18.85616 | -21.64976 | 33992 ft | 467 kts | 215° |
| 2026-05-04 01:03 | 18.79973 | -21.68489 | 34007 ft | 469 kts | 214° |
| 2026-05-04 01:04 | 18.74341 | -21.71991 | 34005 ft | 468 kts | 214° |
| 2026-05-04 01:04 | 18.68688 | -21.75504 | 34004 ft | 467 kts | 214° |
| 2026-05-04 01:05 | 18.63013 | -21.79029 | 34004 ft | 468 kts | 214° |
| 2026-05-04 01:05 | 18.57352 | -21.82541 | 34002 ft | 469 kts | 214° |
| 2026-05-04 01:06 | 18.51682 | -21.86055 | 34001 ft | 468 kts | 214° |
| 2026-05-04 01:06 | 18.46022 | -21.89563 | 34003 ft | 470 kts | 214° |
| 2026-05-04 01:07 | 18.40348 | -21.93074 | 33998 ft | 469 kts | 214° |
| 2026-05-04 01:07 | 18.34624 | -21.96615 | 33991 ft | 472 kts | 215° |
| 2026-05-04 01:08 | 18.28937 | -22.00129 | 33990 ft | 472 kts | 214° |
| 2026-05-04 01:08 | 18.23264 | -22.03633 | 33993 ft | 470 kts | 214° |
| 2026-05-04 01:09 | 18.17544 | -22.07163 | 33988 ft | 471 kts | 214° |
| 2026-05-04 01:09 | 18.11835 | -22.10684 | 33991 ft | 472 kts | 214° |
| 2026-05-04 01:10 | 18.06116 | -22.14207 | 33991 ft | 473 kts | 214° |
| 2026-05-04 01:10 | 18.00397 | -22.17728 | 33989 ft | 472 kts | 214° |
| 2026-05-04 01:11 | 17.94695 | -22.21237 | 33987 ft | 474 kts | 214° |
| 2026-05-04 01:11 | 17.88960 | -22.24761 | 33989 ft | 473 kts | 214° |
| 2026-05-04 01:12 | 17.83235 | -22.28279 | 33987 ft | 471 kts | 214° |
| 2026-05-04 01:12 | 17.77512 | -22.31793 | 33986 ft | 472 kts | 214° |
| 2026-05-04 01:13 | 17.71799 | -22.35298 | 33983 ft | 472 kts | 214° |
| 2026-05-04 01:13 | 17.66092 | -22.38796 | 33981 ft | 472 kts | 214° |
| 2026-05-04 01:14 | 17.60390 | -22.42290 | 33982 ft | 473 kts | 214° |
| 2026-05-04 01:14 | 17.54632 | -22.45814 | 33982 ft | 473 kts | 214° |
| 2026-05-04 01:15 | 17.48918 | -22.49309 | 33980 ft | 473 kts | 214° |
| 2026-05-04 01:15 | 17.43198 | -22.52805 | 33979 ft | 473 kts | 214° |
| 2026-05-04 01:16 | 17.37454 | -22.56313 | 33980 ft | 473 kts | 214° |
| 2026-05-04 01:16 | 17.31740 | -22.59801 | 33980 ft | 473 kts | 214° |
| 2026-05-04 01:17 | 17.25983 | -22.63312 | 33979 ft | 473 kts | 214° |
| 2026-05-04 01:17 | 17.20294 | -22.66779 | 33993 ft | 472 kts | 214° |
| 2026-05-04 01:18 | 17.14567 | -22.70266 | 33994 ft | 473 kts | 214° |
| 2026-05-04 01:18 | 17.08792 | -22.73781 | 33990 ft | 474 kts | 213° |
| 2026-05-04 01:19 | 17.03045 | -22.77276 | 33987 ft | 475 kts | 213° |
| 2026-05-04 01:19 | 16.97297 | -22.80769 | 33991 ft | 475 kts | 213° |
| 2026-05-04 01:20 | 16.91537 | -22.84267 | 33995 ft | 474 kts | 213° |
| 2026-05-04 01:20 | 16.85746 | -22.87781 | 33995 ft | 474 kts | 213° |
| 2026-05-04 01:21 | 16.79994 | -22.91268 | 33998 ft | 473 kts | 213° |
| 2026-05-04 01:21 | 16.74242 | -22.94754 | 34000 ft | 474 kts | 213° |
| 2026-05-04 01:22 | 16.68321 | -22.97899 | 33996 ft | 477 kts | 209° |
| 2026-05-04 01:22 | 16.62203 | -23.00881 | 33992 ft | 479 kts | 209° |
| 2026-05-04 01:23 | 16.56159 | -23.03851 | 33989 ft | 478 kts | 209° |
| 2026-05-04 01:23 | 16.50063 | -23.06862 | 33988 ft | 478 kts | 209° |
| 2026-05-04 01:24 | 16.44023 | -23.09850 | 33983 ft | 477 kts | 209° |
| 2026-05-04 01:24 | 16.37975 | -23.12845 | 33982 ft | 477 kts | 209° |
| 2026-05-04 01:25 | 16.31904 | -23.15853 | 33982 ft | 478 kts | 209° |
| 2026-05-04 01:25 | 16.25867 | -23.18843 | 33978 ft | 479 kts | 209° |
| 2026-05-04 01:26 | 16.19776 | -23.21857 | 33975 ft | 478 kts | 209° |
| 2026-05-04 01:26 | 16.13692 | -23.24867 | 33979 ft | 478 kts | 209° |
| 2026-05-04 01:27 | 16.07657 | -23.27850 | 33975 ft | 478 kts | 209° |
| 2026-05-04 01:27 | 16.01557 | -23.30864 | 33977 ft | 478 kts | 209° |
| 2026-05-04 01:28 | 15.95516 | -23.33848 | 33975 ft | 480 kts | 209° |
| 2026-05-04 01:28 | 15.89433 | -23.36848 | 33975 ft | 480 kts | 209° |
| 2026-05-04 01:29 | 15.83363 | -23.39842 | 33966 ft | 480 kts | 209° |
| 2026-05-04 01:29 | 15.77253 | -23.42853 | 33960 ft | 481 kts | 209° |
| 2026-05-04 01:30 | 15.71172 | -23.45847 | 33959 ft | 479 kts | 209° |
| 2026-05-04 01:30 | 15.65109 | -23.48830 | 33958 ft | 479 kts | 209° |
| 2026-05-04 01:31 | 15.59030 | -23.51820 | 33966 ft | 480 kts | 209° |
| 2026-05-04 01:31 | 15.52937 | -23.54815 | 33971 ft | 479 kts | 209° |
| 2026-05-04 01:32 | 15.46844 | -23.57807 | 33963 ft | 481 kts | 209° |
| 2026-05-04 01:32 | 15.40736 | -23.60805 | 33963 ft | 481 kts | 209° |
| 2026-05-04 01:33 | 15.34610 | -23.63810 | 33965 ft | 481 kts | 209° |
| 2026-05-04 01:33 | 15.28511 | -23.66799 | 33976 ft | 480 kts | 208° |
| 2026-05-04 01:34 | 15.22397 | -23.69794 | 33982 ft | 480 kts | 209° |
| 2026-05-04 01:34 | 15.16423 | -23.72718 | 33980 ft | 481 kts | 208° |
| 2026-05-04 01:35 | 15.10352 | -23.75688 | 33977 ft | 480 kts | 208° |
| 2026-05-04 01:35 | 15.04197 | -23.78698 | 33976 ft | 480 kts | 209° |
| 2026-05-04 01:36 | 14.98082 | -23.81686 | 33971 ft | 482 kts | 208° |
| 2026-05-04 01:36 | 14.91990 | -23.84661 | 33964 ft | 482 kts | 208° |
| 2026-05-04 01:37 | 14.85891 | -23.87636 | 33969 ft | 481 kts | 208° |
| 2026-05-04 01:37 | 14.79784 | -23.90615 | 33967 ft | 481 kts | 208° |
| 2026-05-04 01:38 | 14.73657 | -23.93601 | 33963 ft | 483 kts | 208° |
| 2026-05-04 01:38 | 14.67520 | -23.96590 | 33964 ft | 482 kts | 208° |
| 2026-05-04 01:39 | 14.61389 | -23.99574 | 33963 ft | 483 kts | 208° |
| 2026-05-04 01:39 | 14.55287 | -24.02543 | 33962 ft | 484 kts | 208° |
| 2026-05-04 01:40 | 14.49153 | -24.05525 | 33959 ft | 482 kts | 208° |
| 2026-05-04 01:40 | 14.43002 | -24.08513 | 33957 ft | 482 kts | 208° |
| 2026-05-04 01:41 | 14.36863 | -24.11494 | 33958 ft | 483 kts | 208° |
| 2026-05-04 01:41 | 14.30700 | -24.14485 | 33956 ft | 485 kts | 208° |
| 2026-05-04 01:42 | 14.24515 | -24.17485 | 33952 ft | 485 kts | 208° |
| 2026-05-04 01:42 | 14.18377 | -24.20459 | 33953 ft | 484 kts | 208° |
| 2026-05-04 01:43 | 14.12224 | -24.23440 | 33950 ft | 485 kts | 208° |
| 2026-05-04 01:43 | 14.06045 | -24.26431 | 33950 ft | 484 kts | 208° |
| 2026-05-04 01:44 | 13.99887 | -24.29410 | 33948 ft | 485 kts | 208° |
| 2026-05-04 01:44 | 13.93745 | -24.32381 | 33945 ft | 485 kts | 208° |
| 2026-05-04 01:45 | 13.87591 | -24.35354 | 33945 ft | 484 kts | 208° |
| 2026-05-04 01:45 | 13.78312 | -24.39834 | 33940 ft | 484 kts | 208° |
| 2026-05-04 01:46 | 13.72170 | -24.42798 | 33938 ft | 484 kts | 208° |
| 2026-05-04 01:46 | 13.66008 | -24.45761 | 33936 ft | 485 kts | 208° |
| 2026-05-04 01:47 | 13.59832 | -24.48709 | 33935 ft | 485 kts | 208° |
| 2026-05-04 01:47 | 13.53653 | -24.51657 | 33939 ft | 484 kts | 208° |
| 2026-05-04 01:48 | 13.47518 | -24.54583 | 33935 ft | 485 kts | 208° |
| 2026-05-04 01:48 | 13.41314 | -24.57542 | 33936 ft | 485 kts | 208° |
| 2026-05-04 01:49 | 13.35160 | -24.60474 | 33928 ft | 485 kts | 208° |
| 2026-05-04 01:49 | 13.28968 | -24.63423 | 33930 ft | 484 kts | 208° |
| 2026-05-04 01:50 | 13.22798 | -24.66361 | 33946 ft | 486 kts | 208° |
| 2026-05-04 01:50 | 13.16615 | -24.69302 | 33945 ft | 485 kts | 208° |
| 2026-05-04 01:51 | 13.10444 | -24.72236 | 33945 ft | 484 kts | 208° |
| 2026-05-04 01:51 | 13.04240 | -24.75185 | 33950 ft | 486 kts | 208° |
| 2026-05-04 01:52 | 12.98095 | -24.78103 | 33946 ft | 484 kts | 208° |
| 2026-05-04 01:52 | 12.91909 | -24.81040 | 33946 ft | 484 kts | 208° |
| 2026-05-04 01:53 | 12.85765 | -24.83955 | 33949 ft | 484 kts | 208° |
| 2026-05-04 01:53 | 12.79560 | -24.86897 | 33944 ft | 484 kts | 208° |
| 2026-05-04 01:54 | 12.73378 | -24.89827 | 33941 ft | 483 kts | 208° |
| 2026-05-04 01:54 | 12.67195 | -24.92757 | 33940 ft | 486 kts | 208° |
| 2026-05-04 01:55 | 12.61058 | -24.95662 | 33943 ft | 485 kts | 208° |
| 2026-05-04 01:55 | 12.54848 | -24.98600 | 33942 ft | 484 kts | 208° |
| 2026-05-04 01:56 | 12.48680 | -25.01517 | 33951 ft | 484 kts | 208° |
| 2026-05-04 01:56 | 12.42545 | -25.04417 | 33946 ft | 483 kts | 208° |
| 2026-05-04 01:57 | 12.36362 | -25.07338 | 33946 ft | 483 kts | 208° |
| 2026-05-04 01:57 | 12.30250 | -25.10224 | 33950 ft | 482 kts | 208° |
| 2026-05-04 01:58 | 12.24081 | -25.13135 | 33948 ft | 485 kts | 208° |
| 2026-05-04 01:58 | 12.17907 | -25.16048 | 33947 ft | 484 kts | 208° |
| 2026-05-04 01:59 | 12.11722 | -25.18964 | 33954 ft | 484 kts | 208° |
| 2026-05-04 01:59 | 12.05578 | -25.21859 | 33948 ft | 484 kts | 208° |
| 2026-05-04 02:00 | 11.99394 | -25.24771 | 33949 ft | 483 kts | 208° |
| 2026-05-04 02:00 | 11.93250 | -25.27663 | 33947 ft | 483 kts | 208° |
| 2026-05-04 02:01 | 11.87078 | -25.30567 | 33947 ft | 484 kts | 208° |
| 2026-05-04 02:01 | 11.80911 | -25.33468 | 33949 ft | 483 kts | 208° |
| 2026-05-04 02:02 | 11.74760 | -25.36359 | 33947 ft | 485 kts | 208° |
| 2026-05-04 02:02 | 11.68571 | -25.39266 | 33945 ft | 484 kts | 208° |
| 2026-05-04 02:03 | 11.62403 | -25.42162 | 33947 ft | 484 kts | 208° |
| 2026-05-04 02:03 | 11.56270 | -25.45040 | 33948 ft | 483 kts | 208° |
| 2026-05-04 02:04 | 11.50072 | -25.47949 | 33945 ft | 484 kts | 209° |
| 2026-05-04 02:04 | 11.43910 | -25.50838 | 33945 ft | 482 kts | 208° |
| 2026-05-04 02:05 | 11.37784 | -25.53709 | 33944 ft | 483 kts | 208° |
| 2026-05-04 02:05 | 11.31607 | -25.56602 | 33944 ft | 483 kts | 208° |
| 2026-05-04 02:06 | 11.25456 | -25.59482 | 33944 ft | 483 kts | 208° |
| 2026-05-04 02:06 | 11.19273 | -25.62375 | 33947 ft | 482 kts | 208° |
| 2026-05-04 02:07 | 11.13115 | -25.65256 | 33941 ft | 483 kts | 208° |
| 2026-05-04 02:07 | 11.06972 | -25.68128 | 33950 ft | 483 kts | 208° |
| 2026-05-04 02:08 | 11.00798 | -25.71013 | 33954 ft | 483 kts | 208° |
| 2026-05-04 02:08 | 10.94653 | -25.73884 | 33954 ft | 483 kts | 208° |
| 2026-05-04 02:09 | 10.88492 | -25.76761 | 33949 ft | 484 kts | 208° |
| 2026-05-04 02:09 | 10.82341 | -25.79631 | 33947 ft | 482 kts | 208° |
| 2026-05-04 02:10 | 10.76179 | -25.82505 | 33948 ft | 484 kts | 208° |
| 2026-05-04 02:10 | 10.69994 | -25.85390 | 33949 ft | 484 kts | 208° |
| 2026-05-04 02:11 | 10.63781 | -25.88285 | 33946 ft | 485 kts | 208° |
| 2026-05-04 02:11 | 10.57618 | -25.91156 | 33946 ft | 485 kts | 208° |
| 2026-05-04 02:12 | 10.51436 | -25.94034 | 33953 ft | 486 kts | 208° |
| 2026-05-04 02:12 | 10.45225 | -25.96925 | 33946 ft | 484 kts | 208° |
| 2026-05-04 02:13 | 10.39042 | -25.99802 | 33949 ft | 486 kts | 208° |
| 2026-05-04 02:13 | 10.32857 | -26.02678 | 33946 ft | 487 kts | 209° |
| 2026-05-04 02:14 | 10.26601 | -26.05586 | 33936 ft | 487 kts | 208° |
| 2026-05-04 02:14 | 10.20362 | -26.08485 | 33944 ft | 487 kts | 208° |
| 2026-05-04 02:15 | 10.14156 | -26.11367 | 33947 ft | 487 kts | 208° |
| 2026-05-04 02:15 | 10.07942 | -26.14251 | 33949 ft | 487 kts | 208° |
| 2026-05-04 02:16 | 10.01725 | -26.17136 | 33951 ft | 488 kts | 208° |
| 2026-05-04 02:16 | 9.95444 | -26.20050 | 33954 ft | 488 kts | 209° |
| 2026-05-04 02:17 | 9.89219 | -26.22935 | 33951 ft | 488 kts | 209° |
| 2026-05-04 02:17 | 9.83012 | -26.25812 | 33947 ft | 487 kts | 208° |
| 2026-05-04 02:18 | 9.76782 | -26.28698 | 33944 ft | 487 kts | 208° |
| 2026-05-04 02:18 | 9.70529 | -26.31593 | 33943 ft | 487 kts | 208° |
| 2026-05-04 02:19 | 9.64319 | -26.34468 | 33943 ft | 487 kts | 208° |
| 2026-05-04 02:19 | 9.58083 | -26.37353 | 33943 ft | 488 kts | 208° |
| 2026-05-04 02:20 | 9.51863 | -26.40230 | 33941 ft | 489 kts | 208° |
| 2026-05-04 02:20 | 9.45641 | -26.43106 | 33939 ft | 488 kts | 208° |
| 2026-05-04 02:21 | 9.39418 | -26.45982 | 33941 ft | 488 kts | 208° |
| 2026-05-04 02:21 | 9.33201 | -26.48853 | 33943 ft | 486 kts | 208° |
| 2026-05-04 02:22 | 9.26970 | -26.51730 | 33944 ft | 484 kts | 208° |
| 2026-05-04 02:22 | 9.20789 | -26.54583 | 33945 ft | 486 kts | 208° |
| 2026-05-04 02:23 | 9.14587 | -26.57445 | 33946 ft | 485 kts | 208° |
| 2026-05-04 02:23 | 9.08420 | -26.60289 | 33944 ft | 484 kts | 208° |
| 2026-05-04 02:24 | 9.02205 | -26.63155 | 33944 ft | 486 kts | 209° |
| 2026-05-04 02:24 | 8.96021 | -26.66005 | 33954 ft | 485 kts | 208° |
| 2026-05-04 02:25 | 8.89798 | -26.68872 | 33953 ft | 487 kts | 208° |
| 2026-05-04 02:25 | 8.83588 | -26.71731 | 33951 ft | 485 kts | 208° |
| 2026-05-04 02:26 | 8.77389 | -26.74585 | 33951 ft | 486 kts | 208° |
| 2026-05-04 02:26 | 8.71209 | -26.77429 | 33954 ft | 485 kts | 208° |
| 2026-05-04 02:27 | 8.64997 | -26.80287 | 33953 ft | 486 kts | 208° |
| 2026-05-04 02:27 | 8.58785 | -26.83143 | 33951 ft | 486 kts | 208° |
| 2026-05-04 02:28 | 8.52550 | -26.86009 | 33951 ft | 488 kts | 208° |
| 2026-05-04 02:28 | 8.46331 | -26.88864 | 33954 ft | 486 kts | 208° |
| 2026-05-04 02:29 | 8.40139 | -26.91707 | 33953 ft | 486 kts | 208° |
| 2026-05-04 02:29 | 8.33910 | -26.94565 | 33950 ft | 486 kts | 208° |
| 2026-05-04 02:30 | 8.27727 | -26.97402 | 33950 ft | 486 kts | 208° |
| 2026-05-04 02:30 | 8.21464 | -27.00274 | 33951 ft | 487 kts | 208° |
| 2026-05-04 02:31 | 8.15230 | -27.03132 | 33951 ft | 488 kts | 208° |
| 2026-05-04 02:31 | 8.09029 | -27.05974 | 33951 ft | 487 kts | 208° |
| 2026-05-04 02:32 | 8.02778 | -27.08837 | 33951 ft | 487 kts | 208° |
| 2026-05-04 02:32 | 7.96572 | -27.11680 | 33949 ft | 486 kts | 208° |
| 2026-05-04 02:33 | 7.90361 | -27.14523 | 33950 ft | 488 kts | 208° |
| 2026-05-04 02:33 | 7.84126 | -27.17377 | 33949 ft | 486 kts | 208° |
| 2026-05-04 02:34 | 7.77898 | -27.20226 | 33949 ft | 487 kts | 208° |
| 2026-05-04 02:34 | 7.71693 | -27.23064 | 33949 ft | 486 kts | 208° |
| 2026-05-04 02:35 | 7.65435 | -27.25926 | 33948 ft | 487 kts | 208° |
| 2026-05-04 02:35 | 7.59229 | -27.28762 | 33949 ft | 486 kts | 208° |
| 2026-05-04 02:36 | 7.53018 | -27.31600 | 33948 ft | 485 kts | 208° |
| 2026-05-04 02:36 | 7.46786 | -27.34446 | 33948 ft | 487 kts | 208° |
| 2026-05-04 02:37 | 7.40586 | -27.37278 | 33942 ft | 485 kts | 208° |
| 2026-05-04 02:37 | 7.34374 | -27.40113 | 33934 ft | 486 kts | 208° |
| 2026-05-04 02:38 | 7.28127 | -27.42964 | 33929 ft | 485 kts | 208° |
| 2026-05-04 02:38 | 7.21951 | -27.45782 | 33927 ft | 485 kts | 208° |
| 2026-05-04 02:39 | 7.15694 | -27.48636 | 33927 ft | 486 kts | 208° |
| 2026-05-04 02:39 | 7.09504 | -27.51458 | 33928 ft | 487 kts | 208° |
| 2026-05-04 02:40 | 7.03268 | -27.54300 | 33926 ft | 486 kts | 208° |
| 2026-05-04 02:40 | 6.97072 | -27.57124 | 33926 ft | 486 kts | 208° |
| 2026-05-04 02:41 | 6.90810 | -27.59976 | 33924 ft | 486 kts | 208° |
| 2026-05-04 02:41 | 6.84602 | -27.62804 | 33924 ft | 487 kts | 208° |
| 2026-05-04 02:42 | 6.78392 | -27.65630 | 33931 ft | 485 kts | 208° |
| 2026-05-04 02:42 | 6.72158 | -27.68469 | 33933 ft | 486 kts | 207° |
| 2026-05-04 02:43 | 6.65920 | -27.71308 | 33936 ft | 487 kts | 207° |
| 2026-05-04 02:43 | 6.59691 | -27.74142 | 33941 ft | 487 kts | 207° |
| 2026-05-04 02:44 | 6.53473 | -27.76970 | 33940 ft | 487 kts | 207° |
| 2026-05-04 02:44 | 6.47232 | -27.79808 | 33941 ft | 487 kts | 207° |
| 2026-05-04 02:45 | 6.41047 | -27.82620 | 33941 ft | 487 kts | 207° |
| 2026-05-04 02:45 | 6.34802 | -27.85458 | 33947 ft | 485 kts | 207° |
| 2026-05-04 02:46 | 6.28574 | -27.88287 | 33949 ft | 487 kts | 207° |
| 2026-05-04 02:46 | 6.22359 | -27.91111 | 33949 ft | 486 kts | 207° |
| 2026-05-04 02:47 | 6.16148 | -27.93931 | 33947 ft | 486 kts | 207° |
| 2026-05-04 02:47 | 6.09890 | -27.96772 | 33947 ft | 486 kts | 207° |
| 2026-05-04 02:48 | 6.03664 | -27.99598 | 33950 ft | 487 kts | 207° |
| 2026-05-04 02:48 | 5.97455 | -28.02416 | 33951 ft | 487 kts | 207° |
| 2026-05-04 02:49 | 5.91190 | -28.05257 | 33951 ft | 486 kts | 207° |
| 2026-05-04 02:49 | 5.84968 | -28.08079 | 33950 ft | 485 kts | 207° |
| 2026-05-04 02:50 | 5.78788 | -28.10882 | 33949 ft | 485 kts | 207° |
| 2026-05-04 02:50 | 5.72551 | -28.13709 | 33945 ft | 486 kts | 207° |
| 2026-05-04 02:51 | 5.66319 | -28.16533 | 33942 ft | 486 kts | 207° |
| 2026-05-04 02:51 | 5.60123 | -28.19341 | 33942 ft | 486 kts | 207° |
| 2026-05-04 02:52 | 5.53897 | -28.22161 | 33942 ft | 485 kts | 207° |
| 2026-05-04 02:52 | 5.47672 | -28.24981 | 33942 ft | 486 kts | 207° |
| 2026-05-04 02:53 | 5.41433 | -28.27805 | 33941 ft | 486 kts | 206° |
| 2026-05-04 02:53 | 5.35251 | -28.30604 | 33937 ft | 487 kts | 207° |
| 2026-05-04 02:54 | 5.29001 | -28.33432 | 33933 ft | 486 kts | 206° |
| 2026-05-04 02:54 | 5.23841 | -28.35767 | 33935 ft | 485 kts | 207° |
| 2026-05-04 02:55 | 5.14493 | -28.39996 | 33929 ft | 486 kts | 206° |
| 2026-05-04 02:56 | 5.07226 | -28.43283 | 33929 ft | 487 kts | 206° |
| 2026-05-04 02:56 | 5.02058 | -28.45619 | 33927 ft | 486 kts | 206° |
| 2026-05-04 02:57 | 4.95812 | -28.48443 | 33930 ft | 487 kts | 206° |
| 2026-05-04 02:57 | 4.89560 | -28.51269 | 33931 ft | 487 kts | 206° |
| 2026-05-04 02:58 | 4.83376 | -28.54063 | 33928 ft | 486 kts | 206° |
| 2026-05-04 02:58 | 4.77131 | -28.56884 | 33929 ft | 486 kts | 206° |
| 2026-05-04 02:59 | 4.70890 | -28.59703 | 33926 ft | 487 kts | 206° |
| 2026-05-04 02:59 | 4.64665 | -28.62514 | 33929 ft | 487 kts | 206° |
| 2026-05-04 03:00 | 4.57441 | -28.65776 | 33933 ft | 487 kts | 206° |
| 2026-05-04 03:00 | 4.52237 | -28.68125 | 33935 ft | 486 kts | 206° |
| 2026-05-04 03:01 | 4.46005 | -28.70938 | 33931 ft | 486 kts | 206° |
| 2026-05-04 03:01 | 4.39768 | -28.73753 | 33929 ft | 487 kts | 206° |
| 2026-05-04 03:02 | 4.33558 | -28.76554 | 33932 ft | 486 kts | 206° |
| 2026-05-04 03:02 | 4.27304 | -28.79376 | 33931 ft | 487 kts | 205° |
| 2026-05-04 03:03 | 4.21087 | -28.82180 | 33932 ft | 487 kts | 206° |
| 2026-05-04 03:03 | 4.14835 | -28.84999 | 33932 ft | 487 kts | 205° |
| 2026-05-04 03:04 | 4.08596 | -28.87812 | 33930 ft | 488 kts | 205° |
| 2026-05-04 03:04 | 4.02368 | -28.90619 | 33931 ft | 487 kts | 205° |
| 2026-05-04 03:05 | 3.96138 | -28.93427 | 33927 ft | 486 kts | 205° |
| 2026-05-04 03:05 | 3.89889 | -28.96243 | 33926 ft | 487 kts | 205° |
| 2026-05-04 03:06 | 3.83686 | -28.99038 | 33929 ft | 488 kts | 205° |
| 2026-05-04 03:06 | 3.77407 | -29.01866 | 33929 ft | 488 kts | 205° |
| 2026-05-04 03:07 | 3.71200 | -29.04662 | 33927 ft | 487 kts | 205° |
| 2026-05-04 03:07 | 3.64940 | -29.07481 | 33926 ft | 489 kts | 205° |
| 2026-05-04 03:08 | 3.58665 | -29.10307 | 33922 ft | 490 kts | 205° |
| 2026-05-04 03:08 | 3.52386 | -29.13133 | 33921 ft | 489 kts | 205° |
| 2026-05-04 03:09 | 3.46134 | -29.15948 | 33918 ft | 490 kts | 205° |
| 2026-05-04 03:09 | 3.39825 | -29.18787 | 33919 ft | 491 kts | 205° |
| 2026-05-04 03:10 | 3.33550 | -29.21612 | 33919 ft | 491 kts | 205° |
| 2026-05-04 03:10 | 3.27284 | -29.24433 | 33914 ft | 492 kts | 205° |
| 2026-05-04 03:11 | 3.20971 | -29.27274 | 33912 ft | 492 kts | 205° |
| 2026-05-04 03:11 | 3.14663 | -29.30112 | 33910 ft | 492 kts | 205° |
| 2026-05-04 03:12 | 3.08394 | -29.32933 | 33910 ft | 493 kts | 205° |
| 2026-05-04 03:12 | 3.01000 | -29.36260 | 33909 ft | 493 kts | 205° |
| 2026-05-04 03:13 | 2.95768 | -29.38613 | 33908 ft | 493 kts | 205° |
| 2026-05-04 03:13 | 2.89451 | -29.41454 | 33908 ft | 494 kts | 205° |
| 2026-05-04 03:14 | 2.83129 | -29.44298 | 33909 ft | 494 kts | 205° |
| 2026-05-04 03:14 | 2.76795 | -29.47145 | 33908 ft | 493 kts | 205° |
| 2026-05-04 03:15 | 2.70486 | -29.49982 | 33914 ft | 495 kts | 205° |
| 2026-05-04 03:15 | 2.64173 | -29.52821 | 33924 ft | 494 kts | 205° |
| 2026-05-04 03:16 | 2.57816 | -29.55678 | 33929 ft | 495 kts | 205° |
| 2026-05-04 03:16 | 2.51484 | -29.58524 | 33929 ft | 495 kts | 205° |
| 2026-05-04 03:17 | 2.45143 | -29.61374 | 33929 ft | 495 kts | 205° |
| 2026-05-04 03:17 | 2.38822 | -29.64214 | 33929 ft | 496 kts | 205° |
| 2026-05-04 03:18 | 2.32415 | -29.67093 | 33931 ft | 497 kts | 205° |
| 2026-05-04 03:18 | 2.25022 | -29.70414 | 33931 ft | 497 kts | 205° |
| 2026-05-04 03:19 | 2.19679 | -29.72814 | 33931 ft | 498 kts | 205° |
| 2026-05-04 03:19 | 2.13315 | -29.75673 | 33931 ft | 498 kts | 205° |
| 2026-05-04 03:20 | 2.06934 | -29.78539 | 33931 ft | 498 kts | 205° |
| 2026-05-04 03:20 | 2.00557 | -29.81403 | 33931 ft | 498 kts | 205° |
| 2026-05-04 03:21 | 1.94179 | -29.84268 | 33925 ft | 499 kts | 205° |
| 2026-05-04 03:21 | 1.87767 | -29.87147 | 33926 ft | 499 kts | 205° |
| 2026-05-04 03:22 | 1.81379 | -29.90015 | 33922 ft | 499 kts | 205° |
| 2026-05-04 03:22 | 1.74988 | -29.92884 | 33923 ft | 498 kts | 205° |
| 2026-05-04 03:23 | 1.68643 | -29.95733 | 33919 ft | 499 kts | 205° |
| 2026-05-04 03:23 | 1.62250 | -29.98603 | 33911 ft | 499 kts | 205° |
| 2026-05-04 03:24 | 1.55838 | -30.01481 | 33910 ft | 499 kts | 205° |
| 2026-05-04 03:24 | 1.49457 | -30.04344 | 33910 ft | 499 kts | 205° |
| 2026-05-04 03:25 | 1.43042 | -30.07223 | 33909 ft | 498 kts | 205° |
| 2026-05-04 03:25 | 1.36697 | -30.10071 | 33907 ft | 498 kts | 205° |
| 2026-05-04 03:26 | 1.30312 | -30.12937 | 33910 ft | 498 kts | 205° |
| 2026-05-04 03:26 | 1.23927 | -30.15800 | 33911 ft | 498 kts | 205° |
| 2026-05-04 03:27 | 1.17536 | -30.18664 | 33911 ft | 498 kts | 205° |
| 2026-05-04 03:27 | 1.11178 | -30.21514 | 33909 ft | 498 kts | 205° |
| 2026-05-04 03:28 | 1.04788 | -30.24378 | 33910 ft | 497 kts | 205° |
| 2026-05-04 03:28 | 0.98445 | -30.27221 | 33908 ft | 496 kts | 205° |
| 2026-05-04 03:29 | 0.92079 | -30.30074 | 33910 ft | 496 kts | 205° |
| 2026-05-04 03:29 | 0.85726 | -30.32921 | 33911 ft | 497 kts | 205° |
| 2026-05-04 03:30 | 0.79381 | -30.35765 | 33910 ft | 497 kts | 205° |
| 2026-05-04 03:30 | 0.73043 | -30.38605 | 33909 ft | 497 kts | 205° |
| 2026-05-04 03:31 | 0.66665 | -30.41463 | 33911 ft | 496 kts | 205° |
| 2026-05-04 03:31 | 0.60353 | -30.44291 | 33908 ft | 494 kts | 205° |
| 2026-05-04 03:32 | 0.54027 | -30.47126 | 33911 ft | 495 kts | 205° |
| 2026-05-04 03:32 | 0.47710 | -30.49956 | 33910 ft | 495 kts | 205° |
| 2026-05-04 03:33 | 0.41365 | -30.52799 | 33910 ft | 495 kts | 205° |
| 2026-05-04 03:33 | 0.35038 | -30.55634 | 33909 ft | 495 kts | 205° |
| 2026-05-04 03:34 | 0.28704 | -30.58472 | 33909 ft | 494 kts | 205° |
| 2026-05-04 03:34 | 0.22387 | -30.61302 | 33910 ft | 494 kts | 205° |
| 2026-05-04 03:35 | 0.16094 | -30.64122 | 33908 ft | 492 kts | 205° |
| 2026-05-04 03:35 | 0.09747 | -30.66966 | 33910 ft | 492 kts | 205° |
| 2026-05-04 03:36 | 0.03449 | -30.69787 | 33911 ft | 492 kts | 205° |
| 2026-05-04 03:36 | -0.02826 | -30.72599 | 33910 ft | 493 kts | 205° |
| 2026-05-04 03:37 | -0.09148 | -30.75431 | 33910 ft | 493 kts | 205° |
| 2026-05-04 03:37 | -0.15494 | -30.78275 | 33909 ft | 491 kts | 205° |
| 2026-05-04 03:38 | -0.21764 | -30.81084 | 33918 ft | 492 kts | 205° |
| 2026-05-04 03:38 | -0.28087 | -30.83917 | 33925 ft | 492 kts | 205° |
| 2026-05-04 03:39 | -0.34407 | -30.86749 | 33924 ft | 493 kts | 205° |
| 2026-05-04 03:39 | -0.40685 | -30.89562 | 33921 ft | 495 kts | 205° |
| 2026-05-04 03:40 | -0.47008 | -30.92395 | 33917 ft | 494 kts | 205° |
| 2026-05-04 03:40 | -0.53372 | -30.95247 | 33911 ft | 497 kts | 205° |
| 2026-05-04 03:41 | -0.59748 | -30.98103 | 33910 ft | 496 kts | 205° |
| 2026-05-04 03:41 | -0.66103 | -31.00951 | 33909 ft | 498 kts | 205° |
| 2026-05-04 03:42 | -0.72480 | -31.03809 | 33907 ft | 501 kts | 205° |
| 2026-05-04 03:42 | -0.78913 | -31.06692 | 33914 ft | 501 kts | 205° |
| 2026-05-04 03:43 | -0.85320 | -31.09544 | 33910 ft | 501 kts | 204° |
| 2026-05-04 03:43 | -0.91769 | -31.12268 | 33909 ft | 500 kts | 204° |
| 2026-05-04 03:44 | -0.98271 | -31.15012 | 33910 ft | 502 kts | 204° |
| 2026-05-04 03:44 | -1.04751 | -31.17752 | 33910 ft | 501 kts | 204° |
| 2026-05-04 03:45 | -1.11200 | -31.20482 | 33909 ft | 501 kts | 204° |
| 2026-05-04 03:45 | -1.17712 | -31.23240 | 33909 ft | 501 kts | 204° |
| 2026-05-04 03:46 | -1.24171 | -31.25977 | 33910 ft | 499 kts | 204° |
| 2026-05-04 03:46 | -1.30623 | -31.28711 | 33909 ft | 499 kts | 204° |
| 2026-05-04 03:47 | -1.37048 | -31.31433 | 33909 ft | 499 kts | 204° |
| 2026-05-04 03:47 | -1.43491 | -31.34164 | 33910 ft | 499 kts | 204° |
| 2026-05-04 03:48 | -1.49963 | -31.36907 | 33908 ft | 497 kts | 204° |
| 2026-05-04 03:48 | -1.56354 | -31.39617 | 33910 ft | 497 kts | 204° |
| 2026-05-04 03:49 | -1.62790 | -31.42345 | 33905 ft | 496 kts | 204° |
| 2026-05-04 03:49 | -1.69213 | -31.45069 | 33904 ft | 498 kts | 204° |
| 2026-05-04 03:50 | -1.75629 | -31.47789 | 33910 ft | 497 kts | 204° |
| 2026-05-04 03:50 | -1.82059 | -31.50515 | 33910 ft | 497 kts | 204° |
| 2026-05-04 03:51 | -1.88510 | -31.53251 | 33910 ft | 496 kts | 204° |
| 2026-05-04 03:51 | -1.94878 | -31.55952 | 33904 ft | 495 kts | 203° |
| 2026-05-04 03:52 | -2.01322 | -31.58685 | 33909 ft | 496 kts | 204° |
| 2026-05-04 03:52 | -2.07694 | -31.61387 | 33907 ft | 496 kts | 204° |
| 2026-05-04 03:53 | -2.14120 | -31.64113 | 33902 ft | 496 kts | 204° |
| 2026-05-04 03:53 | -2.20539 | -31.66837 | 33914 ft | 498 kts | 204° |
| 2026-05-04 03:54 | -2.26986 | -31.69572 | 33906 ft | 496 kts | 204° |
| 2026-05-04 03:54 | -2.33388 | -31.72289 | 33907 ft | 496 kts | 204° |
| 2026-05-04 03:55 | -2.39798 | -31.75009 | 33906 ft | 496 kts | 204° |
| 2026-05-04 03:55 | -2.46185 | -31.77720 | 33907 ft | 497 kts | 204° |
| 2026-05-04 03:56 | -2.52644 | -31.80461 | 33906 ft | 499 kts | 204° |
| 2026-05-04 03:56 | -2.59104 | -31.83204 | 33910 ft | 500 kts | 204° |
| 2026-05-04 03:57 | -2.65558 | -31.85944 | 33902 ft | 500 kts | 204° |
| 2026-05-04 03:57 | -2.72024 | -31.88689 | 33904 ft | 500 kts | 204° |
| 2026-05-04 03:58 | -2.81727 | -31.92810 | 33894 ft | 499 kts | 204° |
| 2026-05-04 03:58 | -2.88151 | -31.95538 | 33894 ft | 500 kts | 204° |
| 2026-05-04 03:59 | -2.94614 | -31.98284 | 33893 ft | 501 kts | 204° |
| 2026-05-04 03:59 | -3.01113 | -32.01044 | 33892 ft | 502 kts | 204° |
| 2026-05-04 04:00 | -3.07585 | -32.03794 | 33884 ft | 502 kts | 204° |
| 2026-05-04 04:00 | -3.14050 | -32.06541 | 33895 ft | 502 kts | 204° |
| 2026-05-04 04:01 | -3.20567 | -32.09311 | 33902 ft | 501 kts | 204° |
| 2026-05-04 04:01 | -3.27024 | -32.12056 | 33910 ft | 502 kts | 204° |
| 2026-05-04 04:02 | -3.33297 | -32.15203 | 33908 ft | 502 kts | 210° |
| 2026-05-04 04:02 | -3.39508 | -32.18544 | 33907 ft | 502 kts | 209° |
| 2026-05-04 04:03 | -3.45726 | -32.21861 | 33912 ft | 502 kts | 209° |
| 2026-05-04 04:03 | -3.51958 | -32.25170 | 33906 ft | 503 kts | 209° |
| 2026-05-04 04:04 | -3.58198 | -32.28474 | 33909 ft | 504 kts | 209° |
| 2026-05-04 04:04 | -3.64426 | -32.31768 | 33910 ft | 506 kts | 209° |
| 2026-05-04 04:05 | -3.70728 | -32.35097 | 33916 ft | 507 kts | 209° |
| 2026-05-04 04:05 | -3.77005 | -32.38413 | 33907 ft | 507 kts | 208° |
| 2026-05-04 04:06 | -3.83297 | -32.41737 | 33913 ft | 507 kts | 208° |
| 2026-05-04 04:06 | -3.89581 | -32.45020 | 33934 ft | 508 kts | 208° |
| 2026-05-04 04:07 | -3.95954 | -32.48290 | 33925 ft | 506 kts | 208° |
| 2026-05-04 04:07 | -4.02230 | -32.51515 | 33917 ft | 509 kts | 208° |
| 2026-05-04 04:08 | -4.08598 | -32.54790 | 33911 ft | 509 kts | 208° |
| 2026-05-04 04:08 | -4.14952 | -32.58059 | 33914 ft | 509 kts | 208° |
| 2026-05-04 04:09 | -4.21293 | -32.61323 | 33908 ft | 508 kts | 208° |
| 2026-05-04 04:09 | -4.27616 | -32.64578 | 33909 ft | 508 kts | 208° |
| 2026-05-04 04:10 | -4.33972 | -32.67852 | 33907 ft | 508 kts | 208° |
| 2026-05-04 04:10 | -4.40281 | -32.71101 | 33910 ft | 507 kts | 208° |
| 2026-05-04 04:11 | -4.46625 | -32.74369 | 33904 ft | 508 kts | 208° |
| 2026-05-04 04:11 | -4.52970 | -32.77639 | 33914 ft | 509 kts | 208° |
| 2026-05-04 04:12 | -4.59293 | -32.80897 | 33907 ft | 509 kts | 208° |
| 2026-05-04 04:12 | -4.65645 | -32.84164 | 33914 ft | 508 kts | 208° |
| 2026-05-04 04:13 | -4.71984 | -32.87420 | 33913 ft | 508 kts | 208° |
| 2026-05-04 04:13 | -4.78327 | -32.90680 | 33914 ft | 508 kts | 208° |
| 2026-05-04 04:14 | -4.84694 | -32.93952 | 33914 ft | 509 kts | 208° |
| 2026-05-04 04:14 | -4.91025 | -32.97207 | 33909 ft | 509 kts | 208° |
| 2026-05-04 04:15 | -4.97366 | -33.00468 | 33913 ft | 508 kts | 208° |
| 2026-05-04 04:15 | -5.03746 | -33.03749 | 33912 ft | 508 kts | 208° |
| 2026-05-04 04:16 | -5.10096 | -33.07016 | 33928 ft | 508 kts | 208° |
| 2026-05-04 04:16 | -5.16441 | -33.10281 | 33910 ft | 509 kts | 208° |
| 2026-05-04 04:17 | -5.22802 | -33.13555 | 33913 ft | 509 kts | 208° |
| 2026-05-04 04:17 | -5.29125 | -33.16811 | 33923 ft | 510 kts | 208° |
| 2026-05-04 04:18 | -5.35508 | -33.20098 | 33928 ft | 510 kts | 208° |
| 2026-05-04 04:18 | -5.41834 | -33.23357 | 33929 ft | 510 kts | 208° |
| 2026-05-04 04:19 | -5.48181 | -33.26627 | 33930 ft | 510 kts | 208° |
| 2026-05-04 04:19 | -5.54554 | -33.29911 | 33929 ft | 509 kts | 208° |
| 2026-05-04 04:20 | -5.60938 | -33.33201 | 33930 ft | 510 kts | 209° |
| 2026-05-04 04:20 | -5.67273 | -33.36467 | 33932 ft | 511 kts | 209° |
| 2026-05-04 04:21 | -5.73635 | -33.39748 | 33930 ft | 510 kts | 209° |
| 2026-05-04 04:21 | -5.80027 | -33.43045 | 33929 ft | 510 kts | 209° |
| 2026-05-04 04:22 | -5.86365 | -33.46316 | 33931 ft | 509 kts | 209° |
| 2026-05-04 04:22 | -5.92750 | -33.49611 | 33928 ft | 509 kts | 209° |
| 2026-05-04 04:23 | -5.99079 | -33.52879 | 33930 ft | 511 kts | 209° |
| 2026-05-04 04:23 | -6.05435 | -33.56160 | 33929 ft | 510 kts | 209° |
| 2026-05-04 04:24 | -6.11822 | -33.59459 | 33927 ft | 510 kts | 209° |
| 2026-05-04 04:24 | -6.18171 | -33.62740 | 33930 ft | 510 kts | 209° |
| 2026-05-04 04:25 | -6.24534 | -33.66027 | 33936 ft | 509 kts | 209° |
| 2026-05-04 04:25 | -6.30875 | -33.69306 | 33935 ft | 509 kts | 209° |
| 2026-05-04 04:26 | -6.37234 | -33.72594 | 33940 ft | 511 kts | 209° |
| 2026-05-04 04:26 | -6.43593 | -33.75883 | 33940 ft | 511 kts | 209° |
| 2026-05-04 04:27 | -6.49964 | -33.79179 | 33940 ft | 510 kts | 209° |
| 2026-05-04 04:27 | -6.56356 | -33.82487 | 33941 ft | 510 kts | 209° |
| 2026-05-04 04:28 | -6.62720 | -33.85781 | 33950 ft | 510 kts | 209° |
| 2026-05-04 04:28 | -6.69063 | -33.89066 | 33947 ft | 509 kts | 209° |
| 2026-05-04 04:29 | -6.75401 | -33.92348 | 33943 ft | 510 kts | 209° |
| 2026-05-04 04:29 | -6.81794 | -33.95661 | 33950 ft | 510 kts | 209° |
| 2026-05-04 04:30 | -6.88157 | -33.98959 | 33947 ft | 511 kts | 209° |
| 2026-05-04 04:30 | -6.94521 | -34.02258 | 33942 ft | 509 kts | 209° |
| 2026-05-04 04:31 | -7.00856 | -34.05544 | 33938 ft | 509 kts | 209° |
| 2026-05-04 04:31 | -7.07196 | -34.08833 | 33938 ft | 509 kts | 209° |
| 2026-05-04 04:32 | -7.13545 | -34.12127 | 33932 ft | 507 kts | 209° |
| 2026-05-04 04:32 | -7.19910 | -34.15431 | 33939 ft | 507 kts | 209° |
| 2026-05-04 04:33 | -7.26207 | -34.18701 | 33933 ft | 507 kts | 209° |
| 2026-05-04 04:33 | -7.32531 | -34.21986 | 33933 ft | 508 kts | 209° |
| 2026-05-04 04:34 | -7.38884 | -34.25286 | 33939 ft | 506 kts | 209° |
| 2026-05-04 04:34 | -7.45174 | -34.28555 | 33936 ft | 506 kts | 209° |
| 2026-05-04 04:35 | -7.51491 | -34.31840 | 33939 ft | 505 kts | 209° |
| 2026-05-04 04:35 | -7.57812 | -34.35127 | 33940 ft | 505 kts | 209° |
| 2026-05-04 04:36 | -7.64087 | -34.38392 | 34037 ft | 503 kts | 209° |
| 2026-05-04 04:36 | -7.67224 | -34.40024 | 34179 ft | 504 kts | 209° |
| 2026-05-04 04:36 | -7.70362 | -34.41657 | 34327 ft | 503 kts | 209° |
| 2026-05-04 04:37 | -7.79792 | -34.46617 | 34769 ft | 501 kts | 210° |
| 2026-05-04 04:37 | -7.82858 | -34.48278 | 34912 ft | 500 kts | 210° |
| 2026-05-04 04:38 | -7.85936 | -34.49945 | 35054 ft | 495 kts | 210° |
| 2026-05-04 04:38 | -7.89029 | -34.51619 | 35205 ft | 500 kts | 210° |
| 2026-05-04 04:38 | -7.92119 | -34.53292 | 35355 ft | 501 kts | 210° |
| 2026-05-04 04:38 | -7.95208 | -34.54964 | 35498 ft | 498 kts | 210° |
| 2026-05-04 04:39 | -7.98275 | -34.56623 | 35645 ft | 499 kts | 210° |
| 2026-05-04 04:39 | -8.01357 | -34.58290 | 35794 ft | 498 kts | 210° |
| 2026-05-04 04:39 | -8.04462 | -34.59970 | 35941 ft | 499 kts | 210° |
| 2026-05-04 04:39 | -8.07538 | -34.61634 | 35950 ft | 499 kts | 210° |
| 2026-05-04 04:40 | -8.13597 | -34.64807 | 35944 ft | 505 kts | 206° |
| 2026-05-04 04:40 | -8.20189 | -34.67568 | 35955 ft | 506 kts | 205° |
| 2026-05-04 04:41 | -8.26760 | -34.70286 | 35954 ft | 505 kts | 204° |
| 2026-05-04 04:41 | -8.33283 | -34.72989 | 35955 ft | 504 kts | 204° |
| 2026-05-04 04:42 | -8.39855 | -34.75715 | 35954 ft | 504 kts | 205° |
| 2026-05-04 04:42 | -8.46373 | -34.78421 | 35953 ft | 504 kts | 205° |
| 2026-05-04 04:43 | -8.52927 | -34.81143 | 35954 ft | 503 kts | 205° |
| 2026-05-04 04:43 | -8.59463 | -34.83859 | 35953 ft | 502 kts | 205° |
| 2026-05-04 04:44 | -8.66024 | -34.86587 | 35953 ft | 503 kts | 205° |
| 2026-05-04 04:44 | -8.72529 | -34.89292 | 35952 ft | 501 kts | 205° |
| 2026-05-04 04:45 | -8.79059 | -34.92010 | 35953 ft | 502 kts | 205° |
| 2026-05-04 04:47 | -9.01812 | -35.01485 | 35951 ft | 500 kts | 205° |
| 2026-05-04 04:47 | -9.08141 | -35.04522 | 35975 ft | 499 kts | 212° |
| 2026-05-04 04:48 | -9.14202 | -35.08024 | 35968 ft | 498 kts | 212° |
| 2026-05-04 04:49 | -9.29413 | -35.16831 | 35971 ft | 498 kts | 212° |
| 2026-05-04 04:49 | -9.35471 | -35.20339 | 35974 ft | 499 kts | 212° |
| 2026-05-04 04:50 | -9.41557 | -35.23863 | 35974 ft | 500 kts | 212° |
| 2026-05-04 04:50 | -9.47626 | -35.27379 | 35972 ft | 500 kts | 212° |
| 2026-05-04 04:51 | -9.53741 | -35.30922 | 35977 ft | 501 kts | 212° |
| 2026-05-04 04:51 | -9.59842 | -35.34459 | 35975 ft | 500 kts | 212° |
| 2026-05-04 04:52 | -9.65930 | -35.37989 | 35976 ft | 500 kts | 212° |
| 2026-05-04 04:52 | -9.72014 | -35.41519 | 35976 ft | 499 kts | 212° |
| 2026-05-04 04:53 | -9.78064 | -35.45031 | 35974 ft | 499 kts | 212° |
| 2026-05-04 04:53 | -9.84164 | -35.48573 | 35975 ft | 500 kts | 212° |
| 2026-05-04 04:54 | -9.90276 | -35.52124 | 35974 ft | 500 kts | 212° |
| 2026-05-04 04:54 | -9.96354 | -35.55656 | 35969 ft | 500 kts | 212° |
| 2026-05-04 04:55 | -10.02438 | -35.59193 | 35973 ft | 500 kts | 212° |
| 2026-05-04 04:55 | -10.08521 | -35.62732 | 35971 ft | 499 kts | 212° |
| 2026-05-04 04:56 | -10.14564 | -35.66248 | 35972 ft | 499 kts | 212° |
| 2026-05-04 04:56 | -10.20654 | -35.69794 | 35970 ft | 499 kts | 212° |
| 2026-05-04 04:57 | -10.26729 | -35.73332 | 35974 ft | 499 kts | 212° |
| 2026-05-04 04:57 | -10.32797 | -35.76868 | 35971 ft | 499 kts | 212° |
| 2026-05-04 04:58 | -10.38882 | -35.80415 | 35973 ft | 499 kts | 212° |
| 2026-05-04 04:58 | -10.44930 | -35.83943 | 35972 ft | 499 kts | 212° |
| 2026-05-04 04:59 | -10.51033 | -35.87504 | 35974 ft | 499 kts | 212° |
| 2026-05-04 04:59 | -10.57093 | -35.91042 | 35973 ft | 499 kts | 212° |
| 2026-05-04 05:00 | -10.63178 | -35.94596 | 35978 ft | 499 kts | 212° |
| 2026-05-04 05:01 | -10.72303 | -35.99928 | 35989 ft | 499 kts | 212° |
| 2026-05-04 05:01 | -10.78340 | -36.03458 | 35988 ft | 499 kts | 212° |
| 2026-05-04 05:02 | -10.84405 | -36.07006 | 35990 ft | 499 kts | 212° |
| 2026-05-04 05:02 | -10.90499 | -36.10573 | 35989 ft | 500 kts | 211° |
| 2026-05-04 05:03 | -10.96584 | -36.14137 | 35992 ft | 500 kts | 211° |
| 2026-05-04 05:04 | -11.08776 | -36.21281 | 35993 ft | 502 kts | 211° |
| 2026-05-04 05:04 | -11.14880 | -36.24814 | 35988 ft | 501 kts | 209° |
| 2026-05-04 05:06 | -11.39969 | -36.37889 | 35991 ft | 502 kts | 208° |
| 2026-05-04 05:07 | -11.46207 | -36.41159 | 35991 ft | 501 kts | 208° |
| 2026-05-04 05:07 | -11.52511 | -36.44466 | 35991 ft | 503 kts | 208° |
| 2026-05-04 05:09 | -11.80756 | -36.59314 | 35992 ft | 503 kts | 208° |
| 2026-05-04 05:10 | -11.87051 | -36.62629 | 35992 ft | 503 kts | 208° |
| 2026-05-04 05:10 | -11.93323 | -36.65932 | 35993 ft | 503 kts | 208° |
| 2026-05-04 05:11 | -11.99617 | -36.69249 | 35995 ft | 503 kts | 208° |
| 2026-05-04 05:11 | -12.05922 | -36.72575 | 35995 ft | 504 kts | 208° |
| 2026-05-04 05:12 | -12.12188 | -36.75881 | 35995 ft | 504 kts | 208° |
| 2026-05-04 05:12 | -12.18478 | -36.79201 | 35996 ft | 503 kts | 208° |
| 2026-05-04 05:13 | -12.24745 | -36.82511 | 35999 ft | 503 kts | 208° |
| 2026-05-04 05:13 | -12.31056 | -36.85847 | 35998 ft | 503 kts | 208° |
| 2026-05-04 05:14 | -12.37292 | -36.89144 | 35998 ft | 503 kts | 208° |
| 2026-05-04 05:14 | -12.43597 | -36.92480 | 36000 ft | 503 kts | 208° |
| 2026-05-04 05:15 | -12.49868 | -36.95800 | 36002 ft | 503 kts | 208° |
| 2026-05-04 05:15 | -12.56137 | -36.99120 | 36003 ft | 502 kts | 208° |
| 2026-05-04 05:16 | -12.62381 | -37.02429 | 36007 ft | 503 kts | 208° |
| 2026-05-04 05:16 | -12.68652 | -37.05754 | 36013 ft | 503 kts | 208° |
| 2026-05-04 05:17 | -12.74927 | -37.09083 | 36013 ft | 503 kts | 208° |
| 2026-05-04 05:17 | -12.81173 | -37.12399 | 36013 ft | 502 kts | 208° |
| 2026-05-04 05:18 | -12.87447 | -37.15731 | 36014 ft | 502 kts | 208° |
| 2026-05-04 05:18 | -12.93707 | -37.19058 | 36013 ft | 501 kts | 208° |
| 2026-05-04 05:19 | -12.99957 | -37.22381 | 36012 ft | 502 kts | 208° |
| 2026-05-04 05:19 | -13.06217 | -37.25712 | 36013 ft | 502 kts | 208° |
| 2026-05-04 05:20 | -13.12472 | -37.29041 | 36012 ft | 502 kts | 208° |
| 2026-05-04 05:20 | -13.18718 | -37.32369 | 36011 ft | 503 kts | 208° |
| 2026-05-04 05:21 | -13.25021 | -37.35728 | 36012 ft | 502 kts | 208° |
| 2026-05-04 05:21 | -13.31249 | -37.39050 | 36011 ft | 501 kts | 208° |
| 2026-05-04 05:22 | -13.37482 | -37.42375 | 36010 ft | 501 kts | 208° |
| 2026-05-04 05:22 | -13.43733 | -37.45713 | 36012 ft | 501 kts | 208° |
| 2026-05-04 05:23 | -13.49983 | -37.49052 | 36012 ft | 501 kts | 208° |
| 2026-05-04 05:23 | -13.56224 | -37.52388 | 36012 ft | 502 kts | 208° |
| 2026-05-04 05:24 | -13.62443 | -37.55714 | 36012 ft | 501 kts | 208° |
| 2026-05-04 05:24 | -13.68714 | -37.59071 | 36012 ft | 500 kts | 208° |
| 2026-05-04 05:25 | -13.74903 | -37.62385 | 36012 ft | 500 kts | 208° |
| 2026-05-04 05:25 | -13.81119 | -37.65716 | 36014 ft | 499 kts | 208° |
| 2026-05-04 05:26 | -13.87373 | -37.69069 | 36019 ft | 500 kts | 208° |
| 2026-05-04 05:26 | -13.93582 | -37.72400 | 36027 ft | 500 kts | 209° |
| 2026-05-04 05:28 | -14.18539 | -37.85810 | 36035 ft | 500 kts | 208° |
| 2026-05-04 05:29 | -14.24721 | -37.89137 | 36033 ft | 499 kts | 209° |
| 2026-05-04 05:29 | -14.30939 | -37.92485 | 36033 ft | 499 kts | 208° |
| 2026-05-04 05:31 | -14.55781 | -38.05883 | 36033 ft | 498 kts | 208° |
| 2026-05-04 05:33 | -14.71274 | -38.14257 | 36031 ft | 498 kts | 208° |
| 2026-05-04 05:33 | -14.77035 | -38.17374 | 36035 ft | 498 kts | 208° |
| 2026-05-04 05:34 | -14.83217 | -38.20721 | 36033 ft | 497 kts | 209° |
| 2026-05-04 05:34 | -14.89404 | -38.24073 | 36033 ft | 497 kts | 208° |
| 2026-05-04 05:35 | -14.95604 | -38.27433 | 36033 ft | 497 kts | 208° |
| 2026-05-04 05:35 | -15.01763 | -38.30777 | 36033 ft | 497 kts | 209° |
| 2026-05-04 05:36 | -15.07931 | -38.34152 | 36032 ft | 497 kts | 209° |
| 2026-05-04 05:36 | -15.14084 | -38.37523 | 36032 ft | 497 kts | 209° |
| 2026-05-04 05:37 | -15.18386 | -38.39881 | 36032 ft | 497 kts | 209° |
| 2026-05-04 05:37 | -15.21986 | -38.41856 | 36037 ft | 502 kts | 209° |
| 2026-05-04 05:38 | -15.31344 | -38.46992 | 36043 ft | 500 kts | 209° |
| 2026-05-04 05:38 | -15.37490 | -38.50367 | 36090 ft | 486 kts | 209° |
| 2026-05-04 05:39 | -15.46312 | -38.55215 | 36070 ft | 474 kts | 209° |
| 2026-05-04 05:40 | -15.55358 | -38.60194 | 36033 ft | 496 kts | 209° |
| 2026-05-04 05:40 | -15.61558 | -38.63609 | 36039 ft | 498 kts | 209° |
| 2026-05-04 05:41 | -15.67715 | -38.67001 | 36044 ft | 497 kts | 210° |
| 2026-05-04 05:41 | -15.73916 | -38.70421 | 36039 ft | 497 kts | 209° |
| 2026-05-04 05:42 | -15.80064 | -38.73814 | 36035 ft | 497 kts | 209° |
| 2026-05-04 05:42 | -15.86206 | -38.77206 | 36034 ft | 497 kts | 209° |
| 2026-05-04 05:43 | -15.92351 | -38.80602 | 36035 ft | 497 kts | 209° |
| 2026-05-04 05:45 | -16.17000 | -38.94246 | 36037 ft | 496 kts | 210° |
| 2026-05-04 05:47 | -16.41590 | -39.07899 | 36045 ft | 497 kts | 210° |
| 2026-05-04 05:47 | -16.47763 | -39.11331 | 36043 ft | 497 kts | 210° |
| 2026-05-04 05:48 | -16.53913 | -39.14755 | 36043 ft | 497 kts | 210° |
| 2026-05-04 05:48 | -16.60030 | -39.18161 | 36044 ft | 497 kts | 210° |
| 2026-05-04 05:49 | -16.66168 | -39.21583 | 36049 ft | 496 kts | 210° |
| 2026-05-04 05:49 | -16.72313 | -39.25010 | 36048 ft | 497 kts | 210° |
| 2026-05-04 05:51 | -16.96873 | -39.38734 | 36058 ft | 496 kts | 210° |
| 2026-05-04 05:52 | -17.02974 | -39.42150 | 36058 ft | 496 kts | 210° |
| 2026-05-04 05:52 | -17.09150 | -39.45610 | 36062 ft | 497 kts | 210° |
| 2026-05-04 05:54 | -17.33681 | -39.59381 | 36051 ft | 496 kts | 210° |
| 2026-05-04 05:55 | -17.39820 | -39.62833 | 36048 ft | 496 kts | 210° |
| 2026-05-04 05:55 | -17.45929 | -39.66272 | 36057 ft | 496 kts | 211° |
| 2026-05-04 05:56 | -17.52070 | -39.69731 | 36057 ft | 497 kts | 211° |
| 2026-05-04 05:56 | -17.58212 | -39.73193 | 36056 ft | 496 kts | 211° |
| 2026-05-04 05:57 | -17.64328 | -39.76644 | 36051 ft | 497 kts | 211° |
| 2026-05-04 05:57 | -17.70498 | -39.80127 | 36056 ft | 497 kts | 211° |
| 2026-05-04 05:58 | -17.76599 | -39.83575 | 36052 ft | 497 kts | 211° |
| 2026-05-04 05:58 | -17.82750 | -39.87053 | 36047 ft | 496 kts | 211° |
| 2026-05-04 05:59 | -17.88877 | -39.90520 | 36047 ft | 496 kts | 211° |
| 2026-05-04 05:59 | -17.95015 | -39.93996 | 36040 ft | 496 kts | 211° |
| 2026-05-04 06:00 | -18.01125 | -39.97459 | 36048 ft | 497 kts | 211° |
| 2026-05-04 06:00 | -18.07274 | -40.00948 | 36039 ft | 497 kts | 211° |
| 2026-05-04 06:01 | -18.13383 | -40.04416 | 36041 ft | 497 kts | 211° |
| 2026-05-04 06:03 | -18.37888 | -40.18356 | 36057 ft | 497 kts | 211° |
| 2026-05-04 06:05 | -18.65399 | -40.34061 | 36063 ft | 497 kts | 211° |
| 2026-05-04 06:06 | -18.71494 | -40.37548 | 36061 ft | 496 kts | 211° |
| 2026-05-04 06:06 | -18.77622 | -40.41057 | 36064 ft | 495 kts | 211° |
| 2026-05-04 06:07 | -18.83738 | -40.44562 | 36068 ft | 496 kts | 211° |
| 2026-05-04 06:07 | -18.89860 | -40.48073 | 36070 ft | 496 kts | 211° |
| 2026-05-04 06:08 | -18.96007 | -40.51602 | 36076 ft | 496 kts | 212° |
| 2026-05-04 06:08 | -19.02134 | -40.55122 | 36076 ft | 496 kts | 211° |
| 2026-05-04 06:09 | -19.08238 | -40.58632 | 36075 ft | 495 kts | 212° |
| 2026-05-04 06:11 | -19.32659 | -40.72704 | 36080 ft | 496 kts | 212° |
| 2026-05-04 06:13 | -19.57029 | -40.86795 | 36086 ft | 494 kts | 212° |
| 2026-05-04 06:14 | -19.78279 | -40.99123 | 36196 ft | 494 kts | 212° |
| 2026-05-04 06:15 | -19.84372 | -41.02665 | 36179 ft | 494 kts | 212° |
| 2026-05-04 06:15 | -19.90439 | -41.06194 | 36152 ft | 494 kts | 213° |
| 2026-05-04 06:16 | -19.96496 | -41.09721 | 36137 ft | 493 kts | 213° |
| 2026-05-04 06:16 | -20.02565 | -41.13257 | 36130 ft | 491 kts | 213° |
| 2026-05-04 06:17 | -20.08648 | -41.16806 | 36150 ft | 491 kts | 213° |
| 2026-05-04 06:17 | -20.14675 | -41.20324 | 36161 ft | 491 kts | 213° |
| 2026-05-04 06:18 | -20.20708 | -41.23850 | 36180 ft | 491 kts | 213° |
| 2026-05-04 06:20 | -20.44855 | -41.37993 | 36138 ft | 490 kts | 213° |
| 2026-05-04 06:21 | -20.59905 | -41.46832 | 36108 ft | 490 kts | 213° |
| 2026-05-04 06:22 | -20.65902 | -41.50359 | 36098 ft | 488 kts | 213° |
| 2026-05-04 06:25 | -21.07787 | -41.75085 | 36121 ft | 485 kts | 214° |
| 2026-05-04 06:26 | -21.13736 | -41.78610 | 36108 ft | 485 kts | 214° |
| 2026-05-04 06:26 | -21.19685 | -41.82138 | 36100 ft | 484 kts | 214° |
| 2026-05-04 06:27 | -21.34604 | -41.91000 | 36098 ft | 483 kts | 214° |
| 2026-05-04 06:28 | -21.40496 | -41.94506 | 36100 ft | 483 kts | 214° |
| 2026-05-04 06:28 | -21.46425 | -41.98037 | 36111 ft | 484 kts | 214° |
| 2026-05-04 06:29 | -21.52352 | -42.01570 | 36112 ft | 482 kts | 214° |
| 2026-05-04 06:29 | -21.58314 | -42.05128 | 36106 ft | 483 kts | 214° |
| 2026-05-04 06:30 | -21.64200 | -42.08643 | 36101 ft | 482 kts | 214° |
| 2026-05-04 06:30 | -21.70116 | -42.12180 | 36099 ft | 481 kts | 215° |
| 2026-05-04 06:31 | -21.76034 | -42.15721 | 36101 ft | 481 kts | 215° |
| 2026-05-04 06:31 | -21.81858 | -42.19206 | 35318 ft | 470 kts | 215° |
| 2026-05-04 06:32 | -21.84736 | -42.20934 | 34107 ft | 478 kts | 215° |
| 2026-05-04 06:33 | -22.05004 | -42.33373 | 29108 ft | 457 kts | 223° |
| 2026-05-04 06:34 | -22.07381 | -42.35609 | 28549 ft | 445 kts | 231° |
| 2026-05-04 06:34 | -22.09329 | -42.38130 | 28012 ft | 434 kts | 240° |
| 2026-05-04 06:34 | -22.10865 | -42.40911 | 27610 ft | 422 kts | 248° |
| 2026-05-04 06:34 | -22.11955 | -42.43819 | 27269 ft | 416 kts | 255° |
| 2026-05-04 06:35 | -22.12769 | -42.46841 | 26907 ft | 417 kts | 257° |
| 2026-05-04 06:36 | -22.17921 | -42.67606 | 24339 ft | 398 kts | 258° |
| 2026-05-04 06:37 | -22.18621 | -42.70505 | 23987 ft | 395 kts | 258° |
| 2026-05-04 06:37 | -22.19317 | -42.73396 | 23629 ft | 393 kts | 258° |
| 2026-05-04 06:37 | -22.20001 | -42.76245 | 23298 ft | 392 kts | 258° |
| 2026-05-04 06:37 | -22.20683 | -42.79092 | 22942 ft | 389 kts | 257° |
| 2026-05-04 06:38 | -22.21365 | -42.81942 | 22589 ft | 386 kts | 257° |
| 2026-05-04 06:38 | -22.22036 | -42.84747 | 22244 ft | 386 kts | 257° |
| 2026-05-04 06:40 | -22.26656 | -43.04145 | 18910 ft | 372 kts | 256° |
| 2026-05-04 06:40 | -22.27301 | -43.06865 | 18404 ft | 371 kts | 256° |
| 2026-05-04 06:40 | -22.27942 | -43.09566 | 17906 ft | 369 kts | 256° |
| 2026-05-04 06:40 | -22.28577 | -43.12246 | 17415 ft | 367 kts | 256° |
| 2026-05-04 06:41 | -22.29214 | -43.14936 | 16918 ft | 364 kts | 256° |
| 2026-05-04 06:41 | -22.29842 | -43.17591 | 16425 ft | 363 kts | 255° |
| 2026-05-04 06:41 | -22.30462 | -43.20216 | 15939 ft | 362 kts | 255° |
| 2026-05-04 06:41 | -22.31089 | -43.22871 | 15452 ft | 360 kts | 255° |
| 2026-05-04 06:42 | -22.31716 | -43.25525 | 14986 ft | 357 kts | 255° |
| 2026-05-04 06:42 | -22.32326 | -43.28112 | 14791 ft | 356 kts | 255° |
| 2026-05-04 06:42 | -22.32944 | -43.30734 | 14611 ft | 357 kts | 255° |
| 2026-05-04 06:44 | -22.38823 | -43.48142 | 12872 ft | 352 kts | 224° |
| 2026-05-04 06:44 | -22.40795 | -43.49786 | 12334 ft | 356 kts | 212° |
| 2026-05-04 06:44 | -22.43040 | -43.50950 | 11746 ft | 358 kts | 203° |
| 2026-05-04 06:45 | -22.45375 | -43.51938 | 11178 ft | 357 kts | 202° |
| 2026-05-04 06:45 | -22.47698 | -43.52906 | 10592 ft | 353 kts | 201° |
| 2026-05-04 06:45 | -22.49949 | -43.53845 | 10300 ft | 332 kts | 201° |
| 2026-05-04 06:45 | -22.52050 | -43.54721 | 10189 ft | 309 kts | 202° |
| 2026-05-04 06:46 | -22.54032 | -43.55526 | 10051 ft | 294 kts | 196° |
| 2026-05-04 06:46 | -22.55998 | -43.55693 | 9970 ft | 278 kts | 173° |
| 2026-05-04 06:46 | -22.57901 | -43.55181 | 9550 ft | 284 kts | 161° |
| 2026-05-04 06:46 | -22.59753 | -43.54348 | 8989 ft | 287 kts | 157° |
| 2026-05-04 06:48 | -22.68801 | -43.45126 | 6085 ft | 221 kts | 128° |
| 2026-05-04 06:48 | -22.69673 | -43.43809 | 5707 ft | 207 kts | 128° |
| 2026-05-04 06:49 | -22.70500 | -43.42564 | 5184 ft | 202 kts | 128° |
| 2026-05-04 06:50 | -22.75905 | -43.34466 | 1817 ft | 166 kts | 129° |
| 2026-05-04 06:51 | -22.76567 | -43.33428 | 1546 ft | 164 kts | 127° |
| 2026-05-04 06:51 | -22.77226 | -43.32421 | 1274 ft | 161 kts | 128° |
| 2026-05-04 06:51 | -22.77893 | -43.31434 | 1004 ft | 163 kts | 128° |
| 2026-05-04 06:51 | -22.78562 | -43.30420 | 843 ft | 163 kts | 127° |
| 2026-05-04 06:52 | -22.79221 | -43.29414 | 683 ft | 160 kts | 127° |
| 2026-05-04 06:52 | -22.79880 | -43.28426 | 456 ft | 158 kts | 128° |
| 2026-05-04 06:52 | -22.80526 | -43.27451 | 242 ft | 157 kts | 127° |
| 2026-05-04 06:52 | -22.81178 | -43.26474 | 65 ft | 157 kts | 127° |
| 2026-05-04 06:53 | -22.81797 | -43.25536 | 29 ft | 140 kts | 127° |
| 2026-05-04 06:53 | -22.82288 | -43.24799 | 33 ft | 99 kts | 125° |
| 2026-05-04 06:53 | -22.82563 | -43.24383 | 37 ft | 34 kts | 125° |
| 2026-05-04 06:53 | -22.82629 | -43.24283 | 37 ft | 3 kts | 125° |
| 2026-05-04 06:54 | -22.82638 | -43.24242 | 38 ft | 6 kts | 72° |
| 2026-05-04 06:54 | -22.82607 | -43.24203 | 39 ft | 7 kts | 41° |
| 2026-05-04 06:54 | -22.82565 | -43.24167 | 40 ft | 8 kts | 37° |
| 2026-05-04 06:54 | -22.82523 | -43.24168 | 40 ft | 6 kts | 317° |
| 2026-05-04 06:55 | -22.82484 | -43.24220 | 39 ft | 10 kts | 306° |
| 2026-05-04 06:55 | -22.82436 | -43.24294 | 38 ft | 13 kts | 305° |
| 2026-05-04 06:55 | -22.82393 | -43.24359 | 37 ft | 7 kts | 305° |
| 2026-05-04 06:55 | -22.82367 | -43.24399 | 37 ft | 5 kts | 308° |
| 2026-05-04 06:56 | -22.82334 | -43.24408 | 37 ft | 5 kts | 15° |
| 2026-05-04 06:57 | -22.82036 | -43.24440 | 41 ft | 4 kts | 305° |
| 2026-05-04 06:58 | -22.82014 | -43.24456 | 41 ft | 4 kts | 6° |
| 2026-05-04 06:58 | -22.81994 | -43.24445 | 41 ft | 2 kts | 36° |
| 2026-05-04 06:58 | -22.81980 | -43.24435 | 42 ft | 2 kts | 36° |
| 2026-05-04 06:58 | -22.81967 | -43.24424 | 42 ft | 4 kts | 36° |
| 2026-05-04 06:59 | -22.81948 | -43.24410 | 43 ft | 2 kts | 36° |
| 2026-05-04 06:59 | -22.81942 | -43.24405 | 43 ft | 0 kts | 36° |